Time,TemperatureF,DewpointF,PressureIn,WindDirection,WindDirectionDegrees,WindSpeedMPH,WindSpeedGustMPH,Humidity,HourlyPrecipIn,Conditions,Clouds,dailyrainin,SoftwareType,DateUTC
2013-07-15 00:00:00,69.3,65.3,-100.00,East,88,3.0,6.0,87,0.00,,,0.14,meteohub,2013-07-15 05:00:00,
2013-07-15 00:01:00,69.3,65.3,-100.00,East,88,4.0,6.0,87,0.00,,,0.14,meteohub,2013-07-15 05:01:00,
2013-07-15 00:02:00,69.3,65.3,-100.00,East,88,1.0,6.0,87,0.00,,,0.14,meteohub,2013-07-15 05:02:00,
2013-07-15 00:05:00,69.1,65.1,-100.00,East,88,2.0,6.0,87,0.00,,,0.00,meteohub,2013-07-15 05:05:00,
2013-07-15 00:06:00,69.1,65.1,-100.00,East,88,3.0,6.0,87,0.00,,,0.00,meteohub,2013-07-15 05:06:00,
2013-07-15 00:07:00,69.1,65.1,-100.00,East,88,5.0,6.0,87,0.00,,,0.00,meteohub,2013-07-15 05:07:00,
2013-07-15 00:08:00,69.1,65.3,-100.00,East,88,2.0,6.0,88,0.00,,,0.00,meteohub,2013-07-15 05:08:00,
2013-07-15 00:10:00,69.1,65.3,-100.00,East,86,3.0,6.0,88,0.00,,,0.00,meteohub,2013-07-15 05:10:00,
2013-07-15 00:12:00,68.9,65.1,-100.00,East,84,4.0,6.0,88,0.00,,,0.00,meteohub,2013-07-15 05:12:00,
2013-07-15 00:13:00,68.9,65.1,-100.00,East,84,3.0,6.0,88,0.00,,,0.00,meteohub,2013-07-15 05:13:00,
2013-07-15 00:16:00,68.9,65.1,-100.00,East,84,4.0,6.0,88,0.00,,,0.00,meteohub,2013-07-15 05:16:00,
2013-07-15 00:18:00,68.9,65.1,-100.00,East,84,3.0,6.0,88,0.00,,,0.00,meteohub,2013-07-15 05:18:00,
2013-07-15 00:21:00,68.7,64.9,-100.00,East,83,6.0,7.0,88,0.00,,,0.00,meteohub,2013-07-15 05:21:00,
2013-07-15 00:23:00,68.7,64.9,-100.00,East,83,3.0,7.0,88,0.00,,,0.00,meteohub,2013-07-15 05:23:00,
2013-07-15 00:27:00,68.7,64.9,-100.00,East,83,2.0,7.0,88,0.00,,,0.00,meteohub,2013-07-15 05:27:00,
2013-07-15 00:28:00,68.7,64.9,-100.00,East,83,4.0,7.0,88,0.00,,,0.00,meteohub,2013-07-15 05:28:00,
2013-07-15 00:29:00,68.7,64.9,-100.00,East,83,3.0,7.0,88,0.00,,,0.00,meteohub,2013-07-15 05:29:00,
2013-07-15 00:33:00,68.5,64.8,-100.00,East,82,5.0,7.0,88,0.00,,,0.00,meteohub,2013-07-15 05:33:00,
2013-07-15 00:34:00,68.5,64.8,-100.00,East,81,4.0,7.0,88,0.00,,,0.00,meteohub,2013-07-15 05:34:00,
2013-07-15 00:35:00,68.5,65.1,-100.00,East,81,3.0,7.0,89,0.00,,,0.00,meteohub,2013-07-15 05:35:00,
2013-07-15 00:38:00,68.5,65.1,-100.00,East,80,4.0,6.0,89,0.00,,,0.00,meteohub,2013-07-15 05:38:00,
2013-07-15 00:39:00,68.5,65.1,-100.00,East,80,4.0,6.0,89,0.00,,,0.00,meteohub,2013-07-15 05:39:00,
2013-07-15 00:40:00,68.5,65.1,-100.00,East,80,4.0,6.0,89,0.00,,,0.00,meteohub,2013-07-15 05:40:00,
2013-07-15 00:44:00,68.5,65.1,-100.00,East,80,5.0,6.0,89,0.00,,,0.00,meteohub,2013-07-15 05:44:00,
2013-07-15 00:45:00,68.5,65.1,-100.00,East,80,4.0,6.0,89,0.00,,,0.00,meteohub,2013-07-15 05:45:00,
2013-07-15 00:49:00,68.5,65.1,-100.00,East,80,6.0,6.0,89,0.00,,,0.00,meteohub,2013-07-15 05:49:00,
2013-07-15 00:50:00,68.5,65.1,-100.00,East,80,4.0,6.0,89,0.00,,,0.00,meteohub,2013-07-15 05:50:00,
2013-07-15 00:51:00,68.4,64.9,-100.00,East,80,5.0,6.0,89,0.00,,,0.00,meteohub,2013-07-15 05:51:00,
2013-07-15 00:55:00,68.4,64.9,-100.00,East,84,6.0,6.0,89,0.00,,,0.00,meteohub,2013-07-15 05:55:00,
2013-07-15 00:56:00,68.4,64.9,-100.00,East,84,3.0,7.0,89,0.00,,,0.00,meteohub,2013-07-15 05:56:00,
2013-07-15 01:00:00,68.4,64.9,-100.00,East,85,4.0,7.0,89,0.00,,,0.00,meteohub,2013-07-15 06:00:00,
2013-07-15 01:01:00,68.4,64.9,-100.00,East,86,10.0,10.0,89,0.00,,,0.00,meteohub,2013-07-15 06:01:00,
2013-07-15 01:03:00,68.4,64.9,-100.00,East,84,3.0,7.0,89,0.00,,,0.00,meteohub,2013-07-15 06:03:00,
2013-07-15 01:05:00,68.4,65.3,-100.00,East,81,4.0,7.0,90,0.00,,,0.00,meteohub,2013-07-15 06:05:00,
2013-07-15 01:06:00,68.4,64.9,-100.00,East,80,3.0,10.0,89,0.00,,,0.00,meteohub,2013-07-15 06:06:00,
2013-07-15 01:07:00,68.4,65.3,-100.00,East,80,2.0,10.0,90,0.00,,,0.00,meteohub,2013-07-15 06:07:00,
2013-07-15 01:08:00,68.4,65.3,-100.00,East,80,2.0,10.0,90,0.00,,,0.00,meteohub,2013-07-15 06:08:00,
2013-07-15 01:10:00,68.2,65.1,-100.00,East,79,3.0,10.0,90,0.00,,,0.00,meteohub,2013-07-15 06:10:00,
2013-07-15 01:11:00,68.2,65.1,-100.00,East,80,5.0,10.0,90,0.00,,,0.00,meteohub,2013-07-15 06:11:00,
2013-07-15 01:12:00,68.2,65.1,-100.00,East,80,4.0,10.0,90,0.00,,,0.00,meteohub,2013-07-15 06:12:00,
2013-07-15 01:14:00,68.2,65.1,-100.00,East,80,4.0,10.0,90,0.00,,,0.00,meteohub,2013-07-15 06:14:00,
2013-07-15 01:16:00,68.2,65.1,-100.00,East,82,4.0,10.0,90,0.00,,,0.00,meteohub,2013-07-15 06:16:00,
2013-07-15 01:17:00,68.2,65.1,-100.00,East,81,4.0,10.0,90,0.00,,,0.00,meteohub,2013-07-15 06:17:00,
2013-07-15 01:20:00,68.2,65.1,-100.00,East,82,3.0,10.0,90,0.00,,,0.00,meteohub,2013-07-15 06:20:00,
2013-07-15 01:21:00,68.2,65.1,-100.00,East,84,5.0,7.0,90,0.00,,,0.00,meteohub,2013-07-15 06:21:00,
2013-07-15 01:23:00,67.8,64.8,-100.00,East,85,5.0,7.0,90,0.00,,,0.00,meteohub,2013-07-15 06:23:00,
2013-07-15 01:25:00,67.8,64.8,-100.00,East,84,4.0,7.0,90,0.00,,,0.00,meteohub,2013-07-15 06:25:00,
2013-07-15 01:26:00,67.8,64.8,-100.00,East,84,5.0,7.0,90,0.00,,,0.00,meteohub,2013-07-15 06:26:00,
2013-07-15 01:27:00,67.8,64.8,-100.00,East,84,2.0,7.0,90,0.00,,,0.00,meteohub,2013-07-15 06:27:00,
2013-07-15 01:28:00,68.2,65.1,-100.00,East,84,6.0,7.0,90,0.00,,,0.00,meteohub,2013-07-15 06:28:00,
2013-07-15 01:29:00,68.2,65.1,-100.00,East,86,4.0,7.0,90,0.00,,,0.00,meteohub,2013-07-15 06:29:00,
2013-07-15 01:31:00,67.8,64.8,-100.00,East,86,6.0,7.0,90,0.00,,,0.00,meteohub,2013-07-15 06:31:00,
2013-07-15 01:32:00,67.8,64.8,-100.00,East,85,4.0,7.0,90,0.00,,,0.00,meteohub,2013-07-15 06:32:00,
2013-07-15 01:33:00,67.8,64.8,-100.00,East,85,2.0,7.0,90,0.00,,,0.00,meteohub,2013-07-15 06:33:00,
2013-07-15 01:36:00,67.8,64.8,-100.00,East,85,2.0,7.0,90,0.00,,,0.00,meteohub,2013-07-15 06:36:00,
2013-07-15 01:37:00,67.8,64.8,-100.00,East,85,2.0,7.0,90,0.00,,,0.00,meteohub,2013-07-15 06:37:00,
2013-07-15 01:38:00,67.8,64.8,-100.00,East,85,2.0,7.0,90,0.00,,,0.00,meteohub,2013-07-15 06:38:00,
2013-07-15 01:41:00,67.8,64.8,-100.00,East,85,0.0,6.0,90,0.00,,,0.00,meteohub,2013-07-15 06:41:00,
2013-07-15 01:42:00,67.8,64.8,-100.00,East,85,1.0,6.0,90,0.00,,,0.00,meteohub,2013-07-15 06:42:00,
2013-07-15 01:43:00,67.8,64.8,-100.00,East,85,3.0,6.0,90,0.00,,,0.00,meteohub,2013-07-15 06:43:00,
2013-07-15 01:44:00,67.8,64.8,-100.00,East,85,0.0,6.0,90,0.00,,,0.00,meteohub,2013-07-15 06:44:00,
2013-07-15 01:46:00,67.8,64.8,-100.00,East,85,0.0,6.0,90,0.00,,,0.00,meteohub,2013-07-15 06:46:00,
2013-07-15 01:47:00,67.8,64.8,-100.00,East,85,0.0,6.0,90,0.00,,,0.00,meteohub,2013-07-15 06:47:00,
2013-07-15 01:48:00,67.8,64.8,-100.00,East,85,0.0,6.0,90,0.00,,,0.00,meteohub,2013-07-15 06:48:00,
2013-07-15 01:49:00,67.8,64.8,-100.00,East,85,0.0,6.0,90,0.00,,,0.00,meteohub,2013-07-15 06:49:00,
2013-07-15 01:51:00,67.8,64.8,-100.00,East,85,0.0,4.0,90,0.00,,,0.00,meteohub,2013-07-15 06:51:00,
2013-07-15 01:52:00,67.8,64.8,-100.00,East,85,0.0,4.0,90,0.00,,,0.00,meteohub,2013-07-15 06:52:00,
2013-07-15 01:53:00,67.8,64.8,-100.00,East,85,0.0,4.0,90,0.00,,,0.00,meteohub,2013-07-15 06:53:00,
2013-07-15 01:54:00,67.8,64.8,-100.00,East,85,0.0,4.0,90,0.00,,,0.00,meteohub,2013-07-15 06:54:00,
2013-07-15 01:55:00,67.8,64.8,-100.00,East,85,0.0,4.0,90,0.00,,,0.00,meteohub,2013-07-15 06:55:00,
2013-07-15 01:56:00,68.2,65.1,-100.00,East,85,0.0,3.0,90,0.00,,,0.00,meteohub,2013-07-15 06:56:00,
2013-07-15 01:58:00,68.2,65.1,-100.00,East,85,0.0,3.0,90,0.00,,,0.00,meteohub,2013-07-15 06:58:00,
2013-07-15 01:59:00,68.2,65.1,-100.00,East,85,0.0,3.0,90,0.00,,,0.00,meteohub,2013-07-15 06:59:00,
2013-07-15 02:00:00,68.2,65.1,-100.00,East,85,0.0,3.0,90,0.00,,,0.00,meteohub,2013-07-15 07:00:00,
2013-07-15 02:02:00,68.2,65.1,-100.00,East,85,0.0,2.0,90,0.00,,,0.00,meteohub,2013-07-15 07:02:00,
2013-07-15 02:03:00,68.2,65.1,-100.00,East,85,0.0,2.0,90,0.00,,,0.00,meteohub,2013-07-15 07:03:00,
2013-07-15 02:04:00,68.2,65.1,-100.00,East,85,0.0,2.0,90,0.00,,,0.00,meteohub,2013-07-15 07:04:00,
2013-07-15 02:05:00,68.2,65.1,-100.00,East,85,0.0,2.0,90,0.00,,,0.00,meteohub,2013-07-15 07:05:00,
2013-07-15 02:08:00,68.2,65.1,-100.00,East,85,0.0,1.0,90,0.00,,,0.00,meteohub,2013-07-15 07:08:00,
2013-07-15 02:09:00,68.2,65.1,-100.00,East,85,0.0,1.0,90,0.00,,,0.00,meteohub,2013-07-15 07:09:00,
2013-07-15 02:10:00,68.2,65.1,-100.00,East,85,0.0,1.0,90,0.00,,,0.00,meteohub,2013-07-15 07:10:00,
2013-07-15 02:13:00,68.2,65.1,-100.00,East,85,0.0,1.0,90,0.00,,,0.00,meteohub,2013-07-15 07:13:00,
2013-07-15 02:14:00,68.2,65.1,-100.00,East,85,0.0,1.0,90,0.00,,,0.00,meteohub,2013-07-15 07:14:00,
2013-07-15 02:15:00,68.2,65.1,-100.00,East,85,0.0,0.0,90,0.00,,,0.00,meteohub,2013-07-15 07:15:00,
2013-07-15 02:18:00,68.2,65.1,-100.00,East,85,0.0,0.0,90,0.00,,,0.00,meteohub,2013-07-15 07:18:00,
2013-07-15 02:19:00,68.2,65.1,-100.00,East,85,0.0,0.0,90,0.00,,,0.00,meteohub,2013-07-15 07:19:00,
2013-07-15 02:21:00,68.2,65.1,-100.00,East,85,0.0,0.0,90,0.00,,,0.00,meteohub,2013-07-15 07:21:00,
2013-07-15 02:22:00,68.2,65.1,-100.00,East,85,0.0,0.0,90,0.00,,,0.00,meteohub,2013-07-15 07:22:00,
2013-07-15 02:24:00,68.4,65.3,-100.00,East,85,0.0,0.0,90,0.00,,,0.00,meteohub,2013-07-15 07:24:00,
2013-07-15 02:25:00,68.4,65.3,-100.00,East,85,0.0,0.0,90,0.00,,,0.00,meteohub,2013-07-15 07:25:00,
2013-07-15 02:27:00,68.4,65.3,-100.00,East,85,0.0,0.0,90,0.00,,,0.00,meteohub,2013-07-15 07:27:00,
2013-07-15 02:28:00,68.4,65.3,-100.00,East,85,0.0,0.0,90,0.00,,,0.00,meteohub,2013-07-15 07:28:00,
2013-07-15 02:29:00,68.4,65.3,-100.00,East,85,0.0,0.0,90,0.00,,,0.00,meteohub,2013-07-15 07:29:00,
2013-07-15 02:30:00,68.4,65.3,-100.00,East,85,0.0,0.0,90,0.00,,,0.00,meteohub,2013-07-15 07:30:00,
2013-07-15 02:32:00,68.4,65.3,-100.00,East,85,0.0,0.0,90,0.00,,,0.00,meteohub,2013-07-15 07:32:00,
2013-07-15 02:33:00,68.4,65.3,-100.00,East,85,0.0,0.0,90,0.00,,,0.00,meteohub,2013-07-15 07:33:00,
2013-07-15 02:34:00,68.4,65.3,-100.00,East,85,0.0,0.0,90,0.00,,,0.00,meteohub,2013-07-15 07:34:00,
2013-07-15 02:35:00,68.4,65.3,-100.00,East,85,0.0,0.0,90,0.00,,,0.00,meteohub,2013-07-15 07:35:00,
2013-07-15 02:36:00,68.4,65.3,-100.00,East,85,1.0,2.0,90,0.00,,,0.00,meteohub,2013-07-15 07:36:00,
2013-07-15 02:37:00,68.4,65.3,-100.00,East,85,0.0,2.0,90,0.00,,,0.00,meteohub,2013-07-15 07:37:00,
2013-07-15 02:38:00,68.4,65.3,-100.00,East,85,0.0,2.0,90,0.00,,,0.00,meteohub,2013-07-15 07:38:00,
2013-07-15 02:39:00,68.4,65.7,-100.00,East,85,0.0,2.0,91,0.00,,,0.00,meteohub,2013-07-15 07:39:00,
2013-07-15 02:40:00,68.4,65.7,-100.00,East,85,0.0,2.0,91,0.00,,,0.00,meteohub,2013-07-15 07:40:00,
2013-07-15 02:42:00,68.4,65.7,-100.00,East,85,0.0,2.0,91,0.00,,,0.00,meteohub,2013-07-15 07:42:00,
2013-07-15 02:43:00,68.4,65.3,-100.00,East,85,0.0,2.0,90,0.00,,,0.00,meteohub,2013-07-15 07:43:00,
2013-07-15 02:45:00,68.4,65.7,-100.00,East,85,0.0,2.0,91,0.00,,,0.00,meteohub,2013-07-15 07:45:00,
2013-07-15 02:46:00,68.4,65.7,-100.00,East,85,0.0,1.0,91,0.00,,,0.00,meteohub,2013-07-15 07:46:00,
2013-07-15 02:48:00,68.4,65.7,-100.00,East,85,0.0,1.0,91,0.00,,,0.00,meteohub,2013-07-15 07:48:00,
2013-07-15 02:50:00,68.4,65.7,-100.00,East,85,0.0,1.0,91,0.00,,,0.00,meteohub,2013-07-15 07:50:00,
2013-07-15 02:52:00,68.4,65.7,-100.00,East,85,2.0,2.0,91,0.00,,,0.00,meteohub,2013-07-15 07:52:00,
2013-07-15 02:54:00,68.4,65.7,-100.00,East,85,1.0,1.0,91,0.00,,,0.00,meteohub,2013-07-15 07:54:00,
2013-07-15 02:55:00,68.4,65.7,-100.00,East,85,2.0,2.0,91,0.00,,,0.00,meteohub,2013-07-15 07:55:00,
2013-07-15 02:58:00,68.4,65.7,-100.00,East,85,0.0,2.0,91,0.00,,,0.00,meteohub,2013-07-15 07:58:00,
2013-07-15 02:59:00,68.4,65.7,-100.00,East,85,0.0,2.0,91,0.00,,,0.00,meteohub,2013-07-15 07:59:00,
2013-07-15 03:00:00,68.5,65.8,-100.00,East,85,0.0,2.0,91,0.00,,,0.00,meteohub,2013-07-15 08:00:00,
2013-07-15 03:03:00,68.5,65.8,-100.00,East,85,0.0,3.0,91,0.00,,,0.00,meteohub,2013-07-15 08:03:00,
2013-07-15 03:04:00,68.5,65.8,-100.00,East,85,0.0,3.0,91,0.00,,,0.00,meteohub,2013-07-15 08:04:00,
2013-07-15 03:06:00,68.5,65.8,-100.00,East,85,0.0,3.0,91,0.00,,,0.00,meteohub,2013-07-15 08:06:00,
2013-07-15 03:09:00,68.5,65.8,-100.00,East,85,0.0,3.0,91,0.00,,,0.00,meteohub,2013-07-15 08:09:00,
2013-07-15 03:10:00,68.5,65.8,-100.00,East,85,0.0,3.0,91,0.00,,,0.00,meteohub,2013-07-15 08:10:00,
2013-07-15 03:12:00,68.5,65.8,-100.00,East,85,0.0,3.0,91,0.00,,,0.00,meteohub,2013-07-15 08:12:00,
2013-07-15 03:14:00,68.5,65.8,-100.00,East,85,0.0,3.0,91,0.00,,,0.00,meteohub,2013-07-15 08:14:00,
2013-07-15 03:15:00,68.5,65.8,-100.00,East,85,0.0,3.0,91,0.00,,,0.00,meteohub,2013-07-15 08:15:00,
2013-07-15 03:17:00,68.7,66.0,-100.00,East,85,0.0,2.0,91,0.00,,,0.00,meteohub,2013-07-15 08:17:00,
2013-07-15 03:19:00,68.7,66.0,-100.00,East,85,0.0,2.0,91,0.00,,,0.00,meteohub,2013-07-15 08:19:00,
2013-07-15 03:20:00,68.7,66.0,-100.00,East,85,1.0,0.0,91,0.01,,,0.01,meteohub,2013-07-15 08:20:00,
2013-07-15 03:23:00,68.7,66.0,-100.00,East,85,3.0,0.0,91,0.01,,,0.01,meteohub,2013-07-15 08:23:00,
2013-07-15 03:24:00,68.7,66.0,-100.00,East,85,2.0,0.0,91,0.01,,,0.01,meteohub,2013-07-15 08:24:00,
2013-07-15 03:25:00,68.7,66.0,-100.00,East,85,2.0,3.0,91,0.01,,,0.01,meteohub,2013-07-15 08:25:00,
2013-07-15 03:26:00,68.7,66.0,-100.00,East,85,1.0,3.0,91,0.01,,,0.01,meteohub,2013-07-15 08:26:00,
2013-07-15 03:29:00,68.7,66.0,-100.00,East,85,0.0,3.0,91,0.01,,,0.01,meteohub,2013-07-15 08:29:00,
2013-07-15 03:30:00,68.7,66.0,-100.00,East,85,2.0,3.0,91,0.02,,,0.02,meteohub,2013-07-15 08:30:00,
2013-07-15 03:31:00,68.7,66.0,-100.00,East,85,2.0,3.0,91,0.02,,,0.02,meteohub,2013-07-15 08:31:00,
2013-07-15 03:34:00,68.7,66.0,-100.00,East,85,0.0,3.0,91,0.02,,,0.02,meteohub,2013-07-15 08:34:00,
2013-07-15 03:35:00,68.7,66.0,-100.00,East,85,0.0,3.0,91,0.02,,,0.02,meteohub,2013-07-15 08:35:00,
2013-07-15 03:36:00,68.7,66.0,-100.00,East,85,0.0,3.0,91,0.02,,,0.02,meteohub,2013-07-15 08:36:00,
2013-07-15 03:37:00,68.5,65.8,-100.00,East,85,1.0,3.0,91,0.02,,,0.02,meteohub,2013-07-15 08:37:00,
2013-07-15 03:39:00,68.5,65.8,-100.00,East,85,0.0,3.0,91,0.02,,,0.02,meteohub,2013-07-15 08:39:00,
2013-07-15 03:40:00,68.5,65.8,-100.00,East,85,0.0,3.0,91,0.02,,,0.02,meteohub,2013-07-15 08:40:00,
2013-07-15 03:41:00,68.5,65.8,-100.00,East,85,1.0,3.0,91,0.02,,,0.02,meteohub,2013-07-15 08:41:00,
2013-07-15 03:43:00,68.5,65.8,-100.00,East,85,1.0,3.0,91,0.02,,,0.02,meteohub,2013-07-15 08:43:00,
2013-07-15 03:44:00,68.7,66.0,-100.00,East,85,2.0,3.0,91,0.02,,,0.02,meteohub,2013-07-15 08:44:00,
2013-07-15 03:46:00,68.7,66.0,-100.00,East,85,1.0,3.0,91,0.02,,,0.02,meteohub,2013-07-15 08:46:00,
2013-07-15 03:47:00,68.7,66.0,-100.00,East,85,0.0,3.0,91,0.02,,,0.02,meteohub,2013-07-15 08:47:00,
2013-07-15 03:48:00,68.7,66.0,-100.00,East,85,0.0,3.0,91,0.02,,,0.02,meteohub,2013-07-15 08:48:00,
2013-07-15 03:49:00,68.7,66.0,-100.00,East,85,0.0,3.0,91,0.02,,,0.02,meteohub,2013-07-15 08:49:00,
2013-07-15 03:51:00,68.7,66.4,-100.00,East,85,0.0,3.0,92,0.02,,,0.02,meteohub,2013-07-15 08:51:00,
2013-07-15 03:52:00,68.7,66.4,-100.00,East,85,2.0,3.0,92,0.02,,,0.02,meteohub,2013-07-15 08:52:00,
2013-07-15 03:53:00,68.7,66.4,-100.00,East,85,1.0,3.0,92,0.02,,,0.02,meteohub,2013-07-15 08:53:00,
2013-07-15 03:54:00,68.7,66.4,-100.00,East,85,1.0,3.0,92,0.02,,,0.02,meteohub,2013-07-15 08:54:00,
2013-07-15 03:57:00,68.7,66.4,-100.00,East,85,2.0,3.0,92,0.02,,,0.02,meteohub,2013-07-15 08:57:00,
2013-07-15 03:59:00,68.7,66.4,-100.00,East,85,0.0,3.0,92,0.02,,,0.02,meteohub,2013-07-15 08:59:00,
2013-07-15 04:00:00,68.7,66.4,-100.00,East,85,1.0,3.0,92,0.02,,,0.02,meteohub,2013-07-15 09:00:00,
2013-07-15 04:02:00,68.7,66.4,-100.00,East,85,0.0,3.0,92,0.02,,,0.02,meteohub,2013-07-15 09:02:00,
2013-07-15 04:05:00,68.7,66.4,-100.00,East,85,1.0,3.0,92,0.02,,,0.02,meteohub,2013-07-15 09:05:00,
2013-07-15 04:07:00,68.7,66.4,-100.00,East,85,0.0,2.0,92,0.02,,,0.02,meteohub,2013-07-15 09:07:00,
2013-07-15 04:10:00,68.7,66.4,-100.00,East,85,3.0,3.0,92,0.02,,,0.02,meteohub,2013-07-15 09:10:00,
2013-07-15 04:12:00,68.7,66.4,-100.00,East,85,1.0,3.0,92,0.02,,,0.02,meteohub,2013-07-15 09:12:00,
2013-07-15 04:13:00,68.7,66.4,-100.00,East,85,0.0,3.0,92,0.02,,,0.02,meteohub,2013-07-15 09:13:00,
2013-07-15 04:15:00,68.7,66.4,-100.00,East,85,0.0,3.0,92,0.02,,,0.02,meteohub,2013-07-15 09:15:00,
2013-07-15 04:16:00,68.7,66.4,-100.00,East,85,2.0,3.0,92,0.02,,,0.02,meteohub,2013-07-15 09:16:00,
2013-07-15 04:17:00,68.7,66.4,-100.00,East,85,2.0,3.0,92,0.02,,,0.02,meteohub,2013-07-15 09:17:00,
2013-07-15 04:19:00,68.7,66.4,-100.00,East,85,2.0,3.0,92,0.02,,,0.02,meteohub,2013-07-15 09:19:00,
2013-07-15 04:20:00,68.7,66.4,-100.00,East,85,3.0,3.0,92,0.01,,,0.02,meteohub,2013-07-15 09:20:00,
2013-07-15 04:21:00,68.7,66.4,-100.00,East,85,2.0,3.0,92,0.01,,,0.02,meteohub,2013-07-15 09:21:00,
2013-07-15 04:22:00,68.7,66.4,-100.00,ESE,102,5.0,5.0,92,0.01,,,0.02,meteohub,2013-07-15 09:22:00,
2013-07-15 04:23:00,68.7,66.4,-100.00,ESE,121,6.0,6.0,92,0.01,,,0.02,meteohub,2013-07-15 09:23:00,
2013-07-15 04:24:00,68.7,66.4,-100.00,SE,134,2.0,3.0,92,0.01,,,0.02,meteohub,2013-07-15 09:24:00,
2013-07-15 04:25:00,68.9,66.6,-100.00,SSE,166,3.0,6.0,92,0.02,,,0.03,meteohub,2013-07-15 09:25:00,
2013-07-15 04:26:00,68.9,66.6,-100.00,South,173,3.0,6.0,92,0.02,,,0.03,meteohub,2013-07-15 09:26:00,
2013-07-15 04:28:00,68.7,66.4,-100.00,South,181,4.0,6.0,92,0.02,,,0.03,meteohub,2013-07-15 09:28:00,
2013-07-15 04:29:00,68.7,66.4,-100.00,South,181,2.0,6.0,92,0.02,,,0.03,meteohub,2013-07-15 09:29:00,
2013-07-15 04:31:00,68.5,66.2,-100.00,SSW,206,6.0,8.0,92,0.04,,,0.06,meteohub,2013-07-15 09:31:00,
2013-07-15 04:32:00,68.5,66.2,-100.00,SSW,207,2.0,8.0,92,0.04,,,0.06,meteohub,2013-07-15 09:32:00,
2013-07-15 04:34:00,68.4,66.0,-100.00,SSW,209,2.0,8.0,92,0.04,,,0.06,meteohub,2013-07-15 09:34:00,
2013-07-15 04:36:00,68.4,66.0,-100.00,SSW,209,1.0,9.0,92,0.05,,,0.07,meteohub,2013-07-15 09:36:00,
2013-07-15 04:37:00,68.4,66.0,-100.00,SSW,209,0.0,9.0,92,0.05,,,0.07,meteohub,2013-07-15 09:37:00,
2013-07-15 04:40:00,68.4,66.0,-100.00,SSW,210,1.0,9.0,92,0.05,,,0.07,meteohub,2013-07-15 09:40:00,
2013-07-15 04:41:00,68.4,66.0,-100.00,SSW,210,4.0,9.0,92,0.05,,,0.07,meteohub,2013-07-15 09:41:00,
2013-07-15 04:42:00,68.4,66.0,-100.00,SSW,210,1.0,9.0,92,0.05,,,0.07,meteohub,2013-07-15 09:42:00,
2013-07-15 04:45:00,68.4,66.0,-100.00,SSW,210,0.0,9.0,92,0.05,,,0.08,meteohub,2013-07-15 09:45:00,
2013-07-15 04:46:00,68.4,66.0,-100.00,SSW,210,1.0,6.0,92,0.06,,,0.08,meteohub,2013-07-15 09:46:00,
2013-07-15 04:47:00,68.4,66.0,-100.00,SSW,210,1.0,6.0,92,0.06,,,0.08,meteohub,2013-07-15 09:47:00,
2013-07-15 04:51:00,68.4,66.0,-100.00,SSW,211,1.0,6.0,92,0.06,,,0.08,meteohub,2013-07-15 09:51:00,
2013-07-15 04:52:00,68.4,66.0,-100.00,SSW,211,2.0,6.0,92,0.06,,,0.08,meteohub,2013-07-15 09:52:00,
2013-07-15 04:53:00,68.4,66.0,-100.00,SSW,211,0.0,6.0,92,0.06,,,0.08,meteohub,2013-07-15 09:53:00,
2013-07-15 04:57:00,68.4,66.0,-100.00,SSW,211,1.0,5.0,92,0.06,,,0.08,meteohub,2013-07-15 09:57:00,
2013-07-15 04:58:00,68.4,66.0,-100.00,SSW,211,0.0,5.0,92,0.06,,,0.08,meteohub,2013-07-15 09:58:00,
2013-07-15 05:00:00,68.4,66.0,-100.00,SSW,211,1.0,5.0,92,0.06,,,0.08,meteohub,2013-07-15 10:00:00,
2013-07-15 05:03:00,68.4,66.0,-100.00,SSW,211,1.0,5.0,92,0.06,,,0.08,meteohub,2013-07-15 10:03:00,
2013-07-15 05:04:00,68.4,66.0,-100.00,SSW,211,2.0,5.0,92,0.06,,,0.08,meteohub,2013-07-15 10:04:00,
2013-07-15 05:05:00,68.4,66.0,-100.00,SSW,211,2.0,5.0,92,0.06,,,0.08,meteohub,2013-07-15 10:05:00,
2013-07-15 05:08:00,68.4,66.0,-100.00,SSW,211,1.0,4.0,92,0.06,,,0.08,meteohub,2013-07-15 10:08:00,
2013-07-15 05:09:00,68.4,66.0,-100.00,SSW,211,5.0,5.0,92,0.06,,,0.08,meteohub,2013-07-15 10:09:00,
2013-07-15 05:11:00,68.2,65.8,-100.00,SSW,211,0.0,5.0,92,0.06,,,0.08,meteohub,2013-07-15 10:11:00,
2013-07-15 05:13:00,68.2,65.8,-100.00,SSW,211,0.0,5.0,92,0.06,,,0.08,meteohub,2013-07-15 10:13:00,
2013-07-15 05:14:00,68.2,65.8,-100.00,SSW,211,0.0,5.0,92,0.06,,,0.08,meteohub,2013-07-15 10:14:00,
2013-07-15 05:17:00,68.2,65.8,-100.00,SSW,211,0.0,5.0,92,0.06,,,0.08,meteohub,2013-07-15 10:17:00,
2013-07-15 05:18:00,68.2,65.8,-100.00,SSW,211,0.0,5.0,92,0.06,,,0.08,meteohub,2013-07-15 10:18:00,
2013-07-15 05:19:00,68.2,65.8,-100.00,SSW,211,0.0,5.0,92,0.06,,,0.08,meteohub,2013-07-15 10:19:00,
2013-07-15 05:23:00,68.2,65.8,-100.00,SSW,211,1.0,5.0,92,0.06,,,0.08,meteohub,2013-07-15 10:23:00,
2013-07-15 05:24:00,68.2,65.8,-100.00,SSW,211,2.0,5.0,92,0.06,,,0.08,meteohub,2013-07-15 10:24:00,
2013-07-15 05:25:00,68.2,65.8,-100.00,SSW,211,1.0,5.0,92,0.06,,,0.08,meteohub,2013-07-15 10:25:00,
2013-07-15 05:28:00,67.8,65.7,-100.00,SSW,211,1.0,5.0,93,0.03,,,0.08,meteohub,2013-07-15 10:28:00,
2013-07-15 05:29:00,67.8,65.7,-100.00,SSW,211,2.0,5.0,93,0.03,,,0.08,meteohub,2013-07-15 10:29:00,
2013-07-15 05:30:00,67.8,65.7,-100.00,SSW,211,0.0,5.0,93,0.03,,,0.08,meteohub,2013-07-15 10:30:00,
2013-07-15 05:33:00,67.8,65.7,-100.00,SSW,211,0.0,5.0,93,0.01,,,0.08,meteohub,2013-07-15 10:33:00,
2013-07-15 05:34:00,67.8,65.7,-100.00,SSW,211,2.0,5.0,93,0.01,,,0.08,meteohub,2013-07-15 10:34:00,
2013-07-15 05:35:00,67.8,65.7,-100.00,SSW,211,3.0,5.0,93,0.01,,,0.08,meteohub,2013-07-15 10:35:00,
2013-07-15 05:36:00,67.8,65.7,-100.00,SSW,211,4.0,4.0,93,0.01,,,0.08,meteohub,2013-07-15 10:36:00,
2013-07-15 05:38:00,67.8,65.7,-100.00,SSW,211,2.0,4.0,93,0.01,,,0.08,meteohub,2013-07-15 10:38:00,
2013-07-15 05:39:00,67.8,65.7,-100.00,SSW,211,0.0,4.0,93,0.01,,,0.08,meteohub,2013-07-15 10:39:00,
2013-07-15 05:40:00,67.8,65.7,-100.00,SSW,211,1.0,4.0,93,0.01,,,0.08,meteohub,2013-07-15 10:40:00,
2013-07-15 05:41:00,67.8,65.7,-100.00,SSW,211,0.0,5.0,93,0.01,,,0.08,meteohub,2013-07-15 10:41:00,
2013-07-15 05:42:00,67.8,65.7,-100.00,SSW,211,0.0,5.0,93,0.01,,,0.08,meteohub,2013-07-15 10:42:00,
2013-07-15 05:44:00,67.8,65.7,-100.00,SSW,212,3.0,5.0,93,0.01,,,0.08,meteohub,2013-07-15 10:44:00,
2013-07-15 05:45:00,67.8,65.7,-100.00,SSW,212,0.0,5.0,93,0.01,,,0.08,meteohub,2013-07-15 10:45:00,
2013-07-15 05:46:00,67.8,65.7,-100.00,SSW,212,0.0,5.0,93,0.00,,,0.08,meteohub,2013-07-15 10:46:00,
2013-07-15 05:47:00,67.8,65.7,-100.00,SSW,212,1.0,5.0,93,0.00,,,0.08,meteohub,2013-07-15 10:47:00,
2013-07-15 05:49:00,67.8,65.7,-100.00,SSW,212,3.0,5.0,93,0.00,,,0.08,meteohub,2013-07-15 10:49:00,
2013-07-15 05:50:00,67.8,65.7,-100.00,SSW,212,5.0,5.0,93,0.00,,,0.08,meteohub,2013-07-15 10:50:00,
2013-07-15 05:51:00,67.8,65.7,-100.00,SSW,212,5.0,5.0,93,0.00,,,0.08,meteohub,2013-07-15 10:51:00,
2013-07-15 05:53:00,67.8,65.7,-100.00,SSW,212,3.0,5.0,93,0.00,,,0.08,meteohub,2013-07-15 10:53:00,
2013-07-15 05:54:00,67.8,65.7,-100.00,SSW,212,1.0,5.0,93,0.00,,,0.08,meteohub,2013-07-15 10:54:00,
2013-07-15 05:56:00,67.8,65.7,-100.00,SSW,212,1.0,5.0,93,0.00,,,0.09,meteohub,2013-07-15 10:56:00,
2013-07-15 05:58:00,67.8,65.7,-100.00,SSW,212,1.0,6.0,93,0.01,,,0.09,meteohub,2013-07-15 10:58:00,
2013-07-15 06:00:00,67.6,65.5,-100.00,SSW,212,3.0,6.0,93,0.01,,,0.09,meteohub,2013-07-15 11:00:00,
2013-07-15 06:01:00,67.6,65.5,-100.00,SSW,212,1.0,6.0,93,0.01,,,0.09,meteohub,2013-07-15 11:01:00,
2013-07-15 06:03:00,67.6,65.5,-100.00,SSW,212,1.0,6.0,93,0.01,,,0.09,meteohub,2013-07-15 11:03:00,
2013-07-15 06:06:00,67.6,65.5,-100.00,SSW,212,3.0,6.0,93,0.01,,,0.09,meteohub,2013-07-15 11:06:00,
2013-07-15 06:07:00,67.6,65.5,-100.00,SSW,213,0.0,5.0,93,0.01,,,0.09,meteohub,2013-07-15 11:07:00,
2013-07-15 06:08:00,67.6,65.5,-100.00,SSW,213,1.0,5.0,93,0.01,,,0.09,meteohub,2013-07-15 11:08:00,
2013-07-15 06:11:00,67.6,65.5,-100.00,SSW,213,2.0,5.0,93,0.01,,,0.09,meteohub,2013-07-15 11:11:00,
2013-07-15 06:12:00,67.6,65.5,-100.00,SSW,213,0.0,4.0,93,0.01,,,0.09,meteohub,2013-07-15 11:12:00,
2013-07-15 06:13:00,67.6,65.5,-100.00,SSW,213,0.0,4.0,93,0.01,,,0.09,meteohub,2013-07-15 11:13:00,
2013-07-15 06:14:00,67.6,65.5,-100.00,SSW,213,0.0,4.0,93,0.01,,,0.09,meteohub,2013-07-15 11:14:00,
2013-07-15 06:16:00,67.6,65.5,-100.00,SSW,213,0.0,4.0,93,0.01,,,0.09,meteohub,2013-07-15 11:16:00,
2013-07-15 06:17:00,67.6,65.5,-100.00,SSW,213,2.0,4.0,93,0.01,,,0.09,meteohub,2013-07-15 11:17:00,
2013-07-15 06:18:00,67.6,65.5,-100.00,SSW,213,0.0,4.0,93,0.01,,,0.09,meteohub,2013-07-15 11:18:00,
2013-07-15 06:19:00,67.6,65.5,-100.00,SSW,213,0.0,4.0,93,0.01,,,0.09,meteohub,2013-07-15 11:19:00,
2013-07-15 06:21:00,67.6,65.5,-100.00,SSW,213,0.0,4.0,93,0.01,,,0.09,meteohub,2013-07-15 11:21:00,
2013-07-15 06:22:00,67.6,65.5,-100.00,SSW,213,5.0,5.0,93,0.01,,,0.09,meteohub,2013-07-15 11:22:00,
2013-07-15 06:23:00,67.6,65.5,-100.00,SSW,213,0.0,4.0,93,0.01,,,0.09,meteohub,2013-07-15 11:23:00,
2013-07-15 06:24:00,67.6,65.5,-100.00,SSW,213,2.0,4.0,93,0.01,,,0.09,meteohub,2013-07-15 11:24:00,
2013-07-15 06:27:00,67.6,65.5,-100.00,SSW,213,0.0,6.0,93,0.01,,,0.09,meteohub,2013-07-15 11:27:00,
2013-07-15 06:28:00,67.6,65.5,-100.00,SSW,213,2.0,6.0,93,0.01,,,0.09,meteohub,2013-07-15 11:28:00,
2013-07-15 06:30:00,67.6,65.5,-100.00,SSW,213,5.0,6.0,93,0.01,,,0.09,meteohub,2013-07-15 11:30:00,
2013-07-15 06:32:00,67.6,65.5,-100.00,SW,215,3.0,6.0,93,0.03,,,0.11,meteohub,2013-07-15 11:32:00,
2013-07-15 06:33:00,67.6,65.5,-100.00,SW,214,1.0,6.0,93,0.03,,,0.11,meteohub,2013-07-15 11:33:00,
2013-07-15 06:34:00,67.6,65.5,-100.00,SW,215,1.0,6.0,93,0.03,,,0.11,meteohub,2013-07-15 11:34:00,
2013-07-15 06:35:00,67.6,65.5,-100.00,SW,215,1.0,6.0,93,0.03,,,0.11,meteohub,2013-07-15 11:35:00,
2013-07-15 06:37:00,67.6,65.5,-100.00,SW,215,1.0,6.0,93,0.04,,,0.12,meteohub,2013-07-15 11:37:00,
2013-07-15 06:39:00,67.6,65.5,-100.00,SW,215,1.0,6.0,93,0.04,,,0.12,meteohub,2013-07-15 11:39:00,
2013-07-15 06:40:00,67.6,65.5,-100.00,SW,214,2.0,6.0,93,0.04,,,0.12,meteohub,2013-07-15 11:40:00,
2013-07-15 06:41:00,67.6,65.5,-100.00,SW,215,0.0,6.0,93,0.04,,,0.12,meteohub,2013-07-15 11:41:00,
2013-07-15 06:43:00,67.6,65.5,-100.00,SW,215,2.0,6.0,93,0.04,,,0.12,meteohub,2013-07-15 11:43:00,
2013-07-15 06:44:00,67.6,65.5,-100.00,SW,215,0.0,6.0,93,0.04,,,0.12,meteohub,2013-07-15 11:44:00,
2013-07-15 06:46:00,67.6,65.5,-100.00,SW,215,0.0,6.0,93,0.05,,,0.13,meteohub,2013-07-15 11:46:00,
2013-07-15 06:48:00,67.6,65.5,-100.00,SW,215,0.0,6.0,93,0.05,,,0.13,meteohub,2013-07-15 11:48:00,
2013-07-15 06:49:00,67.6,65.5,-100.00,SW,215,2.0,6.0,93,0.05,,,0.13,meteohub,2013-07-15 11:49:00,
2013-07-15 06:51:00,67.6,65.5,-100.00,SW,214,2.0,5.0,93,0.05,,,0.13,meteohub,2013-07-15 11:51:00,
2013-07-15 06:52:00,67.6,65.5,-100.00,SW,215,1.0,5.0,93,0.05,,,0.13,meteohub,2013-07-15 11:52:00,
2013-07-15 06:53:00,67.6,65.5,-100.00,SW,215,3.0,5.0,93,0.05,,,0.13,meteohub,2013-07-15 11:53:00,
2013-07-15 06:54:00,67.6,65.5,-100.00,SW,215,1.0,5.0,93,0.05,,,0.13,meteohub,2013-07-15 11:54:00,
2013-07-15 06:56:00,67.6,65.5,-100.00,SW,215,0.0,4.0,93,0.05,,,0.14,meteohub,2013-07-15 11:56:00,
2013-07-15 06:57:00,67.6,65.5,-100.00,SW,215,0.0,4.0,93,0.05,,,0.14,meteohub,2013-07-15 11:57:00,
2013-07-15 06:58:00,67.6,65.5,-100.00,SW,215,2.0,4.0,93,0.05,,,0.14,meteohub,2013-07-15 11:58:00,
2013-07-15 07:00:00,67.6,65.5,-100.00,SW,215,0.0,4.0,93,0.05,,,0.14,meteohub,2013-07-15 12:00:00,
2013-07-15 07:02:00,67.6,65.5,-100.00,SW,214,0.0,3.0,93,0.05,,,0.14,meteohub,2013-07-15 12:02:00,
2013-07-15 07:03:00,67.6,65.5,-100.00,SW,214,0.0,3.0,93,0.05,,,0.14,meteohub,2013-07-15 12:03:00,
2013-07-15 07:07:00,67.6,65.8,-100.00,SW,215,0.0,3.0,94,0.06,,,0.15,meteohub,2013-07-15 12:07:00,
2013-07-15 07:08:00,67.6,65.8,-100.00,SW,215,0.0,3.0,94,0.06,,,0.15,meteohub,2013-07-15 12:08:00,
2013-07-15 07:09:00,67.6,65.8,-100.00,SW,215,0.0,3.0,94,0.06,,,0.15,meteohub,2013-07-15 12:09:00,
2013-07-15 07:12:00,67.6,65.8,-100.00,SW,215,0.0,2.0,94,0.06,,,0.15,meteohub,2013-07-15 12:12:00,
2013-07-15 07:13:00,67.6,65.8,-100.00,SW,215,0.0,2.0,94,0.06,,,0.15,meteohub,2013-07-15 12:13:00,
2013-07-15 07:14:00,67.6,65.8,-100.00,SW,215,0.0,2.0,94,0.06,,,0.15,meteohub,2013-07-15 12:14:00,
2013-07-15 07:17:00,67.8,66.0,-100.00,SW,215,0.0,1.0,94,0.06,,,0.15,meteohub,2013-07-15 12:17:00,
2013-07-15 07:18:00,67.8,66.0,-100.00,SW,215,0.0,1.0,94,0.06,,,0.15,meteohub,2013-07-15 12:18:00,
2013-07-15 07:19:00,67.8,66.0,-100.00,SW,215,0.0,1.0,94,0.06,,,0.15,meteohub,2013-07-15 12:19:00,
2013-07-15 07:20:00,67.8,66.0,-100.00,SW,215,0.0,1.0,94,0.06,,,0.16,meteohub,2013-07-15 12:20:00,
2013-07-15 07:23:00,67.8,66.0,-100.00,SW,215,0.0,1.0,94,0.07,,,0.16,meteohub,2013-07-15 12:23:00,
2013-07-15 07:24:00,67.8,66.0,-100.00,SW,215,0.0,1.0,94,0.07,,,0.16,meteohub,2013-07-15 12:24:00,
2013-07-15 07:25:00,67.8,66.0,-100.00,SW,215,0.0,1.0,94,0.07,,,0.16,meteohub,2013-07-15 12:25:00,
2013-07-15 07:28:00,67.8,66.0,-100.00,SW,215,0.0,1.0,94,0.06,,,0.16,meteohub,2013-07-15 12:28:00,
2013-07-15 07:29:00,67.8,66.0,-100.00,SW,215,0.0,1.0,94,0.06,,,0.16,meteohub,2013-07-15 12:29:00,
2013-07-15 07:30:00,67.8,66.0,-100.00,SW,215,0.0,1.0,94,0.06,,,0.16,meteohub,2013-07-15 12:30:00,
2013-07-15 07:31:00,67.8,66.0,-100.00,SW,215,0.0,1.0,94,0.05,,,0.16,meteohub,2013-07-15 12:31:00,
2013-07-15 07:33:00,67.8,66.0,-100.00,SW,215,0.0,1.0,94,0.05,,,0.16,meteohub,2013-07-15 12:33:00,
2013-07-15 07:34:00,67.8,66.0,-100.00,SW,215,0.0,1.0,94,0.05,,,0.16,meteohub,2013-07-15 12:34:00,
2013-07-15 07:35:00,67.8,66.0,-100.00,SW,215,0.0,1.0,94,0.05,,,0.17,meteohub,2013-07-15 12:35:00,
2013-07-15 07:36:00,67.8,66.0,-100.00,SW,214,0.0,1.0,94,0.05,,,0.17,meteohub,2013-07-15 12:36:00,
2013-07-15 07:38:00,67.8,66.0,-100.00,SW,215,0.0,1.0,94,0.05,,,0.17,meteohub,2013-07-15 12:38:00,
2013-07-15 07:40:00,67.8,66.0,-100.00,SW,215,0.0,1.0,94,0.05,,,0.17,meteohub,2013-07-15 12:40:00,
2013-07-15 07:41:00,67.8,66.0,-100.00,SW,215,0.0,0.0,94,0.04,,,0.17,meteohub,2013-07-15 12:41:00,
2013-07-15 07:43:00,67.8,66.0,-100.00,SW,215,0.0,0.0,94,0.04,,,0.17,meteohub,2013-07-15 12:43:00,
2013-07-15 07:45:00,67.8,66.0,-100.00,SW,215,0.0,0.0,94,0.04,,,0.17,meteohub,2013-07-15 12:45:00,
2013-07-15 07:46:00,67.8,66.0,-100.00,SW,214,0.0,0.0,94,0.04,,,0.17,meteohub,2013-07-15 12:46:00,
2013-07-15 07:47:00,67.8,66.0,-100.00,SW,215,1.0,0.0,94,0.04,,,0.17,meteohub,2013-07-15 12:47:00,
2013-07-15 07:49:00,67.8,66.0,-100.00,SW,215,0.0,0.0,94,0.04,,,0.17,meteohub,2013-07-15 12:49:00,
2013-07-15 07:51:00,67.8,66.0,-100.00,SW,215,1.0,1.0,94,0.03,,,0.17,meteohub,2013-07-15 12:51:00,
2013-07-15 07:52:00,67.8,66.0,-100.00,SW,215,2.0,2.0,94,0.03,,,0.17,meteohub,2013-07-15 12:52:00,
2013-07-15 07:54:00,67.8,66.0,-100.00,SW,215,2.0,2.0,94,0.03,,,0.17,meteohub,2013-07-15 12:54:00,
2013-07-15 07:56:00,68.2,66.4,-100.00,SW,215,0.0,2.0,94,0.03,,,0.17,meteohub,2013-07-15 12:56:00,
2013-07-15 07:57:00,68.2,66.4,-100.00,SW,215,0.0,2.0,94,0.03,,,0.17,meteohub,2013-07-15 12:57:00,
2013-07-15 07:59:00,68.2,66.4,-100.00,SW,214,2.0,2.0,94,0.03,,,0.17,meteohub,2013-07-15 12:59:00,
2013-07-15 08:01:00,68.2,66.4,-100.00,SW,214,2.0,3.0,94,0.02,,,0.17,meteohub,2013-07-15 13:01:00,
2013-07-15 08:02:00,68.2,66.4,-100.00,SW,215,2.0,3.0,94,0.02,,,0.17,meteohub,2013-07-15 13:02:00,
2013-07-15 08:03:00,68.2,66.4,-100.00,SW,214,1.0,3.0,94,0.02,,,0.17,meteohub,2013-07-15 13:03:00,
2013-07-15 08:06:00,68.2,66.4,-100.00,SW,214,0.0,4.0,94,0.02,,,0.17,meteohub,2013-07-15 13:06:00,
2013-07-15 08:07:00,68.2,66.4,-100.00,SW,215,3.0,4.0,94,0.02,,,0.17,meteohub,2013-07-15 13:07:00,
2013-07-15 08:08:00,68.2,66.4,-100.00,SW,214,1.0,4.0,94,0.02,,,0.17,meteohub,2013-07-15 13:08:00,
2013-07-15 08:12:00,67.8,66.0,-100.00,SW,215,3.0,4.0,94,0.02,,,0.17,meteohub,2013-07-15 13:12:00,
2013-07-15 08:13:00,67.8,66.0,-100.00,SW,214,1.0,4.0,94,0.02,,,0.17,meteohub,2013-07-15 13:13:00,
2013-07-15 08:14:00,67.8,66.0,-100.00,SW,215,0.0,4.0,94,0.02,,,0.17,meteohub,2013-07-15 13:14:00,
2013-07-15 08:17:00,67.8,66.0,-100.00,SW,214,0.0,4.0,94,0.02,,,0.17,meteohub,2013-07-15 13:17:00,
2013-07-15 08:18:00,67.8,66.0,-100.00,SW,214,0.0,4.0,94,0.02,,,0.17,meteohub,2013-07-15 13:18:00,
2013-07-15 08:20:00,67.8,66.0,-100.00,SW,214,0.0,4.0,94,0.02,,,0.17,meteohub,2013-07-15 13:20:00,
2013-07-15 08:22:00,67.8,66.0,-100.00,SW,214,0.0,3.0,94,0.02,,,0.18,meteohub,2013-07-15 13:22:00,
2013-07-15 08:23:00,67.8,66.0,-100.00,SW,214,0.0,3.0,94,0.02,,,0.18,meteohub,2013-07-15 13:23:00,
2013-07-15 08:24:00,67.8,66.0,-100.00,SW,214,0.0,3.0,94,0.02,,,0.18,meteohub,2013-07-15 13:24:00,
2013-07-15 08:25:00,67.8,66.0,-100.00,SW,214,0.0,3.0,94,0.02,,,0.18,meteohub,2013-07-15 13:25:00,
2013-07-15 08:28:00,67.8,66.0,-100.00,SW,214,0.0,3.0,94,0.02,,,0.18,meteohub,2013-07-15 13:28:00,
2013-07-15 08:30:00,67.8,66.0,-100.00,SW,215,0.0,3.0,94,0.02,,,0.18,meteohub,2013-07-15 13:30:00,
2013-07-15 08:33:00,67.8,66.0,-100.00,SW,214,0.0,3.0,94,0.01,,,0.18,meteohub,2013-07-15 13:33:00,
2013-07-15 08:34:00,67.8,66.0,-100.00,SW,215,0.0,3.0,94,0.01,,,0.18,meteohub,2013-07-15 13:34:00,
2013-07-15 08:35:00,67.8,66.0,-100.00,SW,215,0.0,3.0,94,0.01,,,0.18,meteohub,2013-07-15 13:35:00,
2013-07-15 08:36:00,67.8,66.0,-100.00,SW,214,0.0,0.0,94,0.01,,,0.18,meteohub,2013-07-15 13:36:00,
2013-07-15 08:38:00,67.8,66.0,-100.00,SW,214,0.0,0.0,94,0.01,,,0.18,meteohub,2013-07-15 13:38:00,
2013-07-15 08:39:00,67.8,66.0,-100.00,SW,214,1.0,0.0,94,0.01,,,0.18,meteohub,2013-07-15 13:39:00,
2013-07-15 08:40:00,67.8,66.0,-100.00,SW,215,2.0,0.0,94,0.01,,,0.18,meteohub,2013-07-15 13:40:00,
2013-07-15 08:41:00,67.8,66.0,-100.00,SW,215,2.0,2.0,94,0.01,,,0.18,meteohub,2013-07-15 13:41:00,
2013-07-15 08:43:00,68.2,66.4,-100.00,SW,214,2.0,2.0,94,0.01,,,0.18,meteohub,2013-07-15 13:43:00,
2013-07-15 08:44:00,68.2,66.4,-100.00,SW,214,2.0,2.0,94,0.01,,,0.18,meteohub,2013-07-15 13:44:00,
2013-07-15 08:45:00,68.2,66.4,-100.00,SW,215,1.0,2.0,94,0.01,,,0.18,meteohub,2013-07-15 13:45:00,
2013-07-15 08:46:00,68.2,66.4,-100.00,SW,214,2.0,3.0,94,0.01,,,0.18,meteohub,2013-07-15 13:46:00,
2013-07-15 08:50:00,68.2,66.4,-100.00,SW,215,2.0,3.0,94,0.01,,,0.18,meteohub,2013-07-15 13:50:00,
2013-07-15 08:51:00,68.2,66.4,-100.00,SW,214,3.0,3.0,94,0.02,,,0.19,meteohub,2013-07-15 13:51:00,
2013-07-15 08:55:00,68.2,66.4,-100.00,SW,214,2.0,3.0,94,0.02,,,0.19,meteohub,2013-07-15 13:55:00,
2013-07-15 08:56:00,68.2,66.4,-100.00,SW,214,2.0,3.0,94,0.02,,,0.19,meteohub,2013-07-15 13:56:00,
2013-07-15 08:57:00,68.2,66.4,-100.00,SW,214,1.0,3.0,94,0.02,,,0.19,meteohub,2013-07-15 13:57:00,
2013-07-15 09:00:00,68.2,66.4,-100.00,SW,214,2.0,3.0,94,0.02,,,0.20,meteohub,2013-07-15 14:00:00,
2013-07-15 09:01:00,68.2,66.4,-100.00,SW,214,2.0,3.0,94,0.03,,,0.20,meteohub,2013-07-15 14:01:00,
2013-07-15 09:02:00,68.2,66.4,-100.00,SW,214,2.0,3.0,94,0.03,,,0.20,meteohub,2013-07-15 14:02:00,
2013-07-15 09:05:00,68.2,66.4,-100.00,SW,214,2.0,3.0,94,0.03,,,0.20,meteohub,2013-07-15 14:05:00,
2013-07-15 09:06:00,68.2,66.4,-100.00,SW,215,1.0,3.0,94,0.03,,,0.20,meteohub,2013-07-15 14:06:00,
2013-07-15 09:07:00,68.2,66.4,-100.00,SW,215,1.0,3.0,94,0.03,,,0.20,meteohub,2013-07-15 14:07:00,
2013-07-15 09:10:00,68.2,66.4,-100.00,SW,214,1.0,3.0,94,0.04,,,0.20,meteohub,2013-07-15 14:10:00,
2013-07-15 09:12:00,68.2,66.4,-100.00,SW,214,2.0,3.0,94,0.04,,,0.20,meteohub,2013-07-15 14:12:00,
2013-07-15 09:13:00,68.2,66.4,-100.00,SW,214,2.0,3.0,94,0.04,,,0.20,meteohub,2013-07-15 14:13:00,
2013-07-15 09:16:00,68.2,66.4,-100.00,SW,214,3.0,3.0,94,0.04,,,0.21,meteohub,2013-07-15 14:16:00,
2013-07-15 09:17:00,67.8,66.0,-100.00,SW,214,2.0,3.0,94,0.04,,,0.21,meteohub,2013-07-15 14:17:00,
2013-07-15 09:18:00,67.8,66.0,-100.00,SW,214,2.0,3.0,94,0.04,,,0.21,meteohub,2013-07-15 14:18:00,
2013-07-15 09:19:00,67.8,66.0,-100.00,SW,214,2.0,3.0,94,0.04,,,0.21,meteohub,2013-07-15 14:19:00,
2013-07-15 09:22:00,68.2,66.4,-100.00,SW,214,1.0,3.0,94,0.03,,,0.21,meteohub,2013-07-15 14:22:00,
2013-07-15 09:23:00,68.2,66.4,-100.00,SW,214,2.0,3.0,94,0.03,,,0.21,meteohub,2013-07-15 14:23:00,
2013-07-15 09:24:00,68.2,66.4,-100.00,SW,214,1.0,3.0,94,0.03,,,0.21,meteohub,2013-07-15 14:24:00,
2013-07-15 09:25:00,68.2,66.4,-100.00,SW,215,2.0,3.0,94,0.03,,,0.21,meteohub,2013-07-15 14:25:00,
2013-07-15 09:28:00,68.2,66.4,-100.00,SW,214,3.0,3.0,94,0.04,,,0.21,meteohub,2013-07-15 14:28:00,
2013-07-15 09:29:00,68.2,66.4,-100.00,SW,214,3.0,3.0,94,0.04,,,0.21,meteohub,2013-07-15 14:29:00,
2013-07-15 09:31:00,68.2,66.4,-100.00,SW,214,1.0,4.0,94,0.04,,,0.22,meteohub,2013-07-15 14:31:00,
2013-07-15 09:33:00,68.2,66.4,-100.00,SW,214,2.0,4.0,94,0.04,,,0.22,meteohub,2013-07-15 14:33:00,
2013-07-15 09:34:00,68.2,66.4,-100.00,SW,214,1.0,4.0,94,0.04,,,0.22,meteohub,2013-07-15 14:34:00,
2013-07-15 09:37:00,68.2,66.4,-100.00,SSW,213,2.0,4.0,94,0.04,,,0.22,meteohub,2013-07-15 14:37:00,
2013-07-15 09:38:00,68.2,66.4,-100.00,SSW,213,0.0,4.0,94,0.04,,,0.22,meteohub,2013-07-15 14:38:00,
2013-07-15 09:39:00,68.2,66.4,-100.00,SSW,213,0.0,4.0,94,0.04,,,0.22,meteohub,2013-07-15 14:39:00,
2013-07-15 09:40:00,68.4,66.6,-100.00,SSW,213,0.0,4.0,94,0.04,,,0.22,meteohub,2013-07-15 14:40:00,
2013-07-15 09:41:00,68.4,66.6,-100.00,SSW,213,2.0,4.0,94,0.04,,,0.22,meteohub,2013-07-15 14:41:00,
2013-07-15 09:42:00,68.4,66.6,-100.00,SSW,213,2.0,4.0,94,0.04,,,0.22,meteohub,2013-07-15 14:42:00,
2013-07-15 09:43:00,68.4,66.6,-100.00,SSW,213,3.0,4.0,94,0.04,,,0.22,meteohub,2013-07-15 14:43:00,
2013-07-15 09:44:00,68.4,66.6,-100.00,SSW,211,3.0,4.0,94,0.04,,,0.22,meteohub,2013-07-15 14:44:00,
2013-07-15 09:46:00,68.4,66.6,-100.00,SSW,211,2.0,4.0,94,0.04,,,0.22,meteohub,2013-07-15 14:46:00,
2013-07-15 09:47:00,68.4,66.6,-100.00,SSW,211,3.0,4.0,94,0.04,,,0.22,meteohub,2013-07-15 14:47:00,
2013-07-15 09:50:00,68.4,66.6,-100.00,SSW,202,3.0,4.0,94,0.04,,,0.22,meteohub,2013-07-15 14:50:00,
2013-07-15 09:51:00,68.4,66.6,-100.00,SSW,202,2.0,4.0,94,0.04,,,0.23,meteohub,2013-07-15 14:51:00,
2013-07-15 09:52:00,68.5,66.7,-100.00,SSW,202,3.0,4.0,94,0.04,,,0.23,meteohub,2013-07-15 14:52:00,
2013-07-15 09:55:00,68.7,66.9,-100.00,SSW,202,2.0,4.0,94,0.04,,,0.23,meteohub,2013-07-15 14:55:00,
2013-07-15 09:56:00,68.9,67.1,-100.00,SSW,202,2.0,4.0,94,0.04,,,0.23,meteohub,2013-07-15 14:56:00,
2013-07-15 09:57:00,68.9,67.1,-100.00,SSW,202,2.0,4.0,94,0.04,,,0.23,meteohub,2013-07-15 14:57:00,
2013-07-15 10:00:00,68.9,67.1,-100.00,SSW,202,1.0,4.0,94,0.04,,,0.23,meteohub,2013-07-15 15:00:00,
2013-07-15 10:02:00,68.9,67.1,-100.00,SSW,202,3.0,4.0,94,0.03,,,0.23,meteohub,2013-07-15 15:02:00,
2013-07-15 10:03:00,68.9,67.1,-100.00,SSW,201,2.0,4.0,94,0.03,,,0.23,meteohub,2013-07-15 15:03:00,
2013-07-15 10:06:00,69.1,67.3,-100.00,SSW,201,3.0,4.0,94,0.03,,,0.23,meteohub,2013-07-15 15:06:00,
2013-07-15 10:07:00,69.1,67.3,-100.00,SSW,194,3.0,4.0,94,0.03,,,0.23,meteohub,2013-07-15 15:07:00,
2013-07-15 10:08:00,68.9,67.1,-100.00,SSW,193,3.0,4.0,94,0.03,,,0.23,meteohub,2013-07-15 15:08:00,
2013-07-15 10:10:00,69.1,67.3,-100.00,South,190,3.0,4.0,94,0.03,,,0.23,meteohub,2013-07-15 15:10:00,
2013-07-15 10:11:00,69.1,67.3,-100.00,South,190,2.0,5.0,94,0.02,,,0.23,meteohub,2013-07-15 15:11:00,
2013-07-15 10:13:00,69.3,67.5,-100.00,South,188,3.0,5.0,94,0.02,,,0.23,meteohub,2013-07-15 15:13:00,
2013-07-15 10:15:00,69.3,67.5,-100.00,South,173,3.0,5.0,94,0.02,,,0.23,meteohub,2013-07-15 15:15:00,
2013-07-15 10:18:00,69.4,67.6,-100.00,South,173,4.0,6.0,94,0.02,,,0.23,meteohub,2013-07-15 15:18:00,
2013-07-15 10:19:00,69.4,67.6,-100.00,South,170,2.0,6.0,94,0.02,,,0.23,meteohub,2013-07-15 15:19:00,
2013-07-15 10:20:00,69.4,67.6,-100.00,South,170,3.0,6.0,94,0.02,,,0.23,meteohub,2013-07-15 15:20:00,
2013-07-15 10:23:00,69.4,67.6,-100.00,SSE,155,3.0,6.0,94,0.02,,,0.23,meteohub,2013-07-15 15:23:00,
2013-07-15 10:24:00,69.6,67.8,-100.00,SSE,153,5.0,6.0,94,0.02,,,0.23,meteohub,2013-07-15 15:24:00,
2013-07-15 10:26:00,69.4,67.6,-100.00,SSE,148,4.0,6.0,94,0.01,,,0.23,meteohub,2013-07-15 15:26:00,
2013-07-15 10:28:00,69.6,67.8,-100.00,SE,140,5.0,6.0,94,0.01,,,0.23,meteohub,2013-07-15 15:28:00,
2013-07-15 10:30:00,69.6,67.5,-100.00,SE,139,3.0,7.0,93,0.01,,,0.23,meteohub,2013-07-15 15:30:00,
2013-07-15 10:31:00,69.6,67.5,-100.00,SE,139,3.0,7.0,93,0.01,,,0.23,meteohub,2013-07-15 15:31:00,
2013-07-15 10:33:00,69.8,67.6,-100.00,SE,139,1.0,7.0,93,0.01,,,0.23,meteohub,2013-07-15 15:33:00,
2013-07-15 10:36:00,70.0,67.8,-100.00,SE,138,4.0,7.0,93,0.01,,,0.23,meteohub,2013-07-15 15:36:00,
2013-07-15 10:37:00,69.8,67.6,-100.00,SE,138,5.0,7.0,93,0.01,,,0.23,meteohub,2013-07-15 15:37:00,
2013-07-15 10:39:00,69.8,67.6,-100.00,SE,124,4.0,7.0,93,0.01,,,0.23,meteohub,2013-07-15 15:39:00,
2013-07-15 10:41:00,70.0,67.8,-100.00,SE,124,2.0,7.0,93,0.01,,,0.23,meteohub,2013-07-15 15:41:00,
2013-07-15 10:42:00,70.2,68.0,-100.00,ESE,123,4.0,7.0,93,0.01,,,0.23,meteohub,2013-07-15 15:42:00,
2013-07-15 10:43:00,70.2,68.0,-100.00,ESE,123,5.0,7.0,93,0.01,,,0.23,meteohub,2013-07-15 15:43:00,
2013-07-15 10:44:00,70.2,68.0,-100.00,East,92,5.0,7.0,93,0.01,,,0.23,meteohub,2013-07-15 15:44:00,
2013-07-15 10:47:00,70.2,68.0,-100.00,East,92,4.0,9.0,93,0.01,,,0.23,meteohub,2013-07-15 15:47:00,
2013-07-15 10:49:00,70.3,68.2,-100.00,East,91,5.0,9.0,93,0.01,,,0.23,meteohub,2013-07-15 15:49:00,
2013-07-15 10:50:00,70.3,68.2,-100.00,East,91,4.0,9.0,93,0.01,,,0.23,meteohub,2013-07-15 15:50:00,
2013-07-15 10:52:00,70.3,67.8,-100.00,East,90,3.0,9.0,92,0.00,,,0.23,meteohub,2013-07-15 15:52:00,
2013-07-15 10:53:00,70.5,68.0,-100.00,East,91,6.0,9.0,92,0.00,,,0.23,meteohub,2013-07-15 15:53:00,
2013-07-15 10:54:00,70.9,68.4,-100.00,East,92,5.0,9.0,92,0.00,,,0.23,meteohub,2013-07-15 15:54:00,
2013-07-15 10:55:00,70.5,68.0,-100.00,East,92,5.0,9.0,92,0.00,,,0.23,meteohub,2013-07-15 15:55:00,
2013-07-15 10:57:00,70.5,68.0,-100.00,East,92,4.0,9.0,92,0.00,,,0.23,meteohub,2013-07-15 15:57:00,
2013-07-15 10:58:00,70.9,68.4,-100.00,East,98,7.0,9.0,92,0.00,,,0.23,meteohub,2013-07-15 15:58:00,
2013-07-15 11:00:00,70.9,68.4,-100.00,East,98,4.0,9.0,92,0.00,,,0.23,meteohub,2013-07-15 16:00:00,
2013-07-15 11:02:00,70.9,68.4,-100.00,East,101,7.0,8.0,92,0.00,,,0.23,meteohub,2013-07-15 16:02:00,
2013-07-15 11:03:00,70.9,68.4,-100.00,East,98,6.0,8.0,92,0.00,,,0.23,meteohub,2013-07-15 16:03:00,
2013-07-15 11:05:00,70.9,68.2,-100.00,East,97,5.0,8.0,91,0.00,,,0.23,meteohub,2013-07-15 16:05:00,
2013-07-15 11:06:00,70.9,68.2,-100.00,East,99,3.0,8.0,91,0.00,,,0.23,meteohub,2013-07-15 16:06:00,
2013-07-15 11:07:00,71.1,68.4,-100.00,East,99,5.0,8.0,91,0.00,,,0.23,meteohub,2013-07-15 16:07:00,
2013-07-15 11:09:00,71.1,68.4,-100.00,East,99,5.0,8.0,91,0.00,,,0.23,meteohub,2013-07-15 16:09:00,
2013-07-15 11:11:00,71.2,68.5,-100.00,East,99,4.0,8.0,91,0.00,,,0.23,meteohub,2013-07-15 16:11:00,
2013-07-15 11:12:00,71.4,68.7,-100.00,East,99,4.0,8.0,91,0.00,,,0.23,meteohub,2013-07-15 16:12:00,
2013-07-15 11:15:00,71.2,68.2,-100.00,East,100,4.0,8.0,90,0.00,,,0.23,meteohub,2013-07-15 16:15:00,
2013-07-15 11:17:00,71.2,68.2,-100.00,East,100,3.0,7.0,90,0.00,,,0.23,meteohub,2013-07-15 16:17:00,
2013-07-15 11:18:00,71.4,68.4,-100.00,East,100,6.0,7.0,90,0.00,,,0.23,meteohub,2013-07-15 16:18:00,
2013-07-15 11:19:00,71.6,68.2,-100.00,East,96,5.0,7.0,89,0.00,,,0.23,meteohub,2013-07-15 16:19:00,
2013-07-15 11:20:00,71.6,68.2,-100.00,East,97,6.0,7.0,89,0.00,,,0.23,meteohub,2013-07-15 16:20:00,
2013-07-15 11:22:00,71.8,68.4,-100.00,ESE,112,10.0,10.0,89,0.00,,,0.23,meteohub,2013-07-15 16:22:00,
2013-07-15 11:24:00,71.8,68.4,-100.00,ESE,113,4.0,7.0,89,0.00,,,0.23,meteohub,2013-07-15 16:24:00,
2013-07-15 11:27:00,72.0,68.5,-100.00,East,101,5.0,11.0,89,0.00,,,0.23,meteohub,2013-07-15 16:27:00,
2013-07-15 11:28:00,72.1,68.4,-100.00,East,80,9.0,11.0,88,0.00,,,0.23,meteohub,2013-07-15 16:28:00,
2013-07-15 11:31:00,72.3,68.5,-100.00,East,81,5.0,11.0,88,0.00,,,0.23,meteohub,2013-07-15 16:31:00,
2013-07-15 11:32:00,72.5,68.7,-100.00,East,81,5.0,11.0,88,0.00,,,0.23,meteohub,2013-07-15 16:32:00,
2013-07-15 11:34:00,72.3,68.2,-100.00,East,88,8.0,11.0,87,0.00,,,0.23,meteohub,2013-07-15 16:34:00,
2013-07-15 11:36:00,72.3,67.8,-100.00,East,87,5.0,11.0,86,0.00,,,0.23,meteohub,2013-07-15 16:36:00,
2013-07-15 11:38:00,72.7,68.5,-100.00,East,94,6.0,11.0,87,0.00,,,0.23,meteohub,2013-07-15 16:38:00,
2013-07-15 11:39:00,72.7,68.5,-100.00,East,95,6.0,11.0,87,0.00,,,0.23,meteohub,2013-07-15 16:39:00,
2013-07-15 11:42:00,72.7,67.8,-100.00,East,98,6.0,11.0,85,0.00,,,0.23,meteohub,2013-07-15 16:42:00,
2013-07-15 11:44:00,72.9,68.0,-100.00,ESE,105,5.0,11.0,85,0.00,,,0.23,meteohub,2013-07-15 16:44:00,
2013-07-15 11:48:00,72.9,67.8,-100.00,East,100,8.0,11.0,84,0.00,,,0.23,meteohub,2013-07-15 16:48:00,
2013-07-15 11:49:00,72.9,67.8,-100.00,East,101,6.0,11.0,84,0.00,,,0.23,meteohub,2013-07-15 16:49:00,
2013-07-15 11:50:00,72.9,67.8,-100.00,East,95,10.0,11.0,84,0.00,,,0.23,meteohub,2013-07-15 16:50:00,
2013-07-15 11:51:00,72.9,67.5,-100.00,East,99,8.0,11.0,83,0.00,,,0.23,meteohub,2013-07-15 16:51:00,
2013-07-15 11:53:00,73.0,67.6,-100.00,East,98,4.0,11.0,83,0.00,,,0.23,meteohub,2013-07-15 16:53:00,
2013-07-15 11:56:00,73.0,68.0,-100.00,East,90,6.0,12.0,84,0.00,,,0.23,meteohub,2013-07-15 16:56:00,
2013-07-15 11:58:00,73.2,68.2,-100.00,East,88,7.0,12.0,84,0.00,,,0.23,meteohub,2013-07-15 16:58:00,
2013-07-15 11:59:00,73.2,67.8,-100.00,East,88,4.0,12.0,83,0.00,,,0.23,meteohub,2013-07-15 16:59:00,
2013-07-15 12:02:00,73.2,68.2,-100.00,East,97,8.0,12.0,84,0.00,,,0.23,meteohub,2013-07-15 17:02:00,
2013-07-15 12:04:00,73.2,67.5,-100.00,East,92,3.0,12.0,82,0.00,,,0.23,meteohub,2013-07-15 17:04:00,
2013-07-15 12:07:00,73.2,67.5,-100.00,East,101,8.0,11.0,82,0.00,,,0.23,meteohub,2013-07-15 17:07:00,
2013-07-15 12:08:00,73.2,67.5,-100.00,ESE,105,5.0,11.0,82,0.00,,,0.23,meteohub,2013-07-15 17:08:00,
2013-07-15 12:10:00,73.2,67.5,-100.00,East,98,9.0,11.0,82,0.00,,,0.23,meteohub,2013-07-15 17:10:00,
2013-07-15 12:12:00,73.2,67.5,-100.00,ESE,102,9.0,12.0,82,0.00,,,0.23,meteohub,2013-07-15 17:12:00,
2013-07-15 12:13:00,73.2,67.5,-100.00,East,98,7.0,12.0,82,0.00,,,0.23,meteohub,2013-07-15 17:13:00,
2013-07-15 12:16:00,73.2,67.1,-100.00,ESE,108,6.0,12.0,81,0.00,,,0.23,meteohub,2013-07-15 17:16:00,
2013-07-15 12:18:00,73.6,67.8,-100.00,ESE,117,5.0,12.0,82,0.00,,,0.23,meteohub,2013-07-15 17:18:00,
2013-07-15 12:19:00,73.8,68.0,-100.00,ESE,115,11.0,12.0,82,0.00,,,0.23,meteohub,2013-07-15 17:19:00,
2013-07-15 12:23:00,73.8,67.6,-100.00,East,101,7.0,12.0,81,0.00,,,0.23,meteohub,2013-07-15 17:23:00,
2013-07-15 12:24:00,73.8,67.6,-100.00,ESE,106,10.0,12.0,81,0.00,,,0.23,meteohub,2013-07-15 17:24:00,
2013-07-15 12:28:00,73.6,67.5,-100.00,East,96,6.0,12.0,81,0.00,,,0.23,meteohub,2013-07-15 17:28:00,
2013-07-15 12:29:00,73.6,67.5,-100.00,ESE,119,5.0,12.0,81,0.00,,,0.23,meteohub,2013-07-15 17:29:00,
2013-07-15 12:33:00,73.9,67.8,-100.00,East,98,5.0,13.0,81,0.00,,,0.23,meteohub,2013-07-15 17:33:00,
2013-07-15 12:34:00,73.9,67.8,-100.00,ESE,117,11.0,13.0,81,0.00,,,0.23,meteohub,2013-07-15 17:34:00,
2013-07-15 12:35:00,73.9,67.5,-100.00,ESE,119,7.0,13.0,80,0.00,,,0.23,meteohub,2013-07-15 17:35:00,
2013-07-15 12:38:00,73.9,67.5,-100.00,ESE,111,5.0,13.0,80,0.00,,,0.23,meteohub,2013-07-15 17:38:00,
2013-07-15 12:39:00,73.9,67.8,-100.00,ESE,113,6.0,13.0,81,0.00,,,0.23,meteohub,2013-07-15 17:39:00,
2013-07-15 12:40:00,74.1,68.0,-100.00,SE,126,10.0,12.0,81,0.00,,,0.23,meteohub,2013-07-15 17:40:00,
2013-07-15 12:44:00,74.1,67.1,-100.00,SE,126,7.0,12.0,79,0.00,,,0.23,meteohub,2013-07-15 17:44:00,
2013-07-15 12:46:00,73.9,67.1,-100.00,ESE,120,4.0,13.0,79,0.00,,,0.23,meteohub,2013-07-15 17:46:00,
2013-07-15 12:49:00,73.9,67.1,-100.00,ESE,122,5.0,13.0,79,0.00,,,0.23,meteohub,2013-07-15 17:49:00,
2013-07-15 12:50:00,73.9,67.1,-100.00,SE,128,6.0,13.0,79,0.00,,,0.23,meteohub,2013-07-15 17:50:00,
2013-07-15 12:51:00,73.9,67.1,-100.00,SE,128,7.0,13.0,79,0.00,,,0.23,meteohub,2013-07-15 17:51:00,
2013-07-15 12:53:00,73.9,67.5,-100.00,SE,124,6.0,13.0,80,0.00,,,0.23,meteohub,2013-07-15 17:53:00,
2013-07-15 12:55:00,73.9,67.1,-100.00,ESE,121,4.0,13.0,79,0.00,,,0.23,meteohub,2013-07-15 17:55:00,
2013-07-15 12:56:00,73.9,67.1,-100.00,SE,124,9.0,13.0,79,0.00,,,0.23,meteohub,2013-07-15 17:56:00,
2013-07-15 12:57:00,73.9,66.6,-100.00,ESE,117,3.0,13.0,78,0.00,,,0.23,meteohub,2013-07-15 17:57:00,
2013-07-15 12:58:00,73.9,66.6,-100.00,ESE,114,7.0,13.0,78,0.00,,,0.23,meteohub,2013-07-15 17:58:00,
2013-07-15 13:00:00,73.9,66.6,-100.00,ESE,118,6.0,13.0,78,0.00,,,0.23,meteohub,2013-07-15 18:00:00,
2013-07-15 13:01:00,73.9,67.1,-100.00,ESE,119,6.0,12.0,79,0.00,,,0.23,meteohub,2013-07-15 18:01:00,
2013-07-15 13:02:00,73.9,67.1,-100.00,ESE,118,5.0,12.0,79,0.00,,,0.23,meteohub,2013-07-15 18:02:00,
2013-07-15 13:03:00,73.9,67.1,-100.00,ESE,107,4.0,12.0,79,0.00,,,0.23,meteohub,2013-07-15 18:03:00,
2013-07-15 13:05:00,73.9,67.1,-100.00,ESE,105,5.0,12.0,79,0.00,,,0.23,meteohub,2013-07-15 18:05:00,
2013-07-15 13:06:00,73.9,67.1,-100.00,ESE,105,3.0,12.0,79,0.00,,,0.23,meteohub,2013-07-15 18:06:00,
2013-07-15 13:09:00,73.9,67.1,-100.00,ESE,106,4.0,12.0,79,0.00,,,0.23,meteohub,2013-07-15 18:09:00,
2013-07-15 13:10:00,73.9,67.1,-100.00,ESE,107,2.0,12.0,79,0.00,,,0.23,meteohub,2013-07-15 18:10:00,
2013-07-15 13:11:00,74.1,67.1,-100.00,ESE,108,7.0,12.0,79,0.00,,,0.23,meteohub,2013-07-15 18:11:00,
2013-07-15 13:12:00,74.1,67.1,-100.00,ESE,113,5.0,12.0,79,0.00,,,0.23,meteohub,2013-07-15 18:12:00,
2013-07-15 13:14:00,74.7,67.6,-100.00,ESE,118,7.0,12.0,79,0.00,,,0.23,meteohub,2013-07-15 18:14:00,
2013-07-15 13:15:00,74.7,67.6,-100.00,ESE,119,4.0,10.0,79,0.00,,,0.23,meteohub,2013-07-15 18:15:00,
2013-07-15 13:16:00,74.7,67.3,-100.00,ESE,106,5.0,10.0,78,0.00,,,0.23,meteohub,2013-07-15 18:16:00,
2013-07-15 13:17:00,74.7,67.3,-100.00,ESE,105,6.0,10.0,78,0.00,,,0.23,meteohub,2013-07-15 18:17:00,
2013-07-15 13:20:00,74.7,67.3,-100.00,ESE,104,5.0,10.0,78,0.00,,,0.23,meteohub,2013-07-15 18:20:00,
2013-07-15 13:21:00,74.7,67.3,-100.00,ESE,103,4.0,10.0,78,0.00,,,0.23,meteohub,2013-07-15 18:21:00,
2013-07-15 13:23:00,74.7,67.3,-100.00,ESE,103,4.0,10.0,78,0.00,,,0.23,meteohub,2013-07-15 18:23:00,
2013-07-15 13:24:00,74.7,67.3,-100.00,ESE,107,2.0,10.0,78,0.00,,,0.23,meteohub,2013-07-15 18:24:00,
2013-07-15 13:25:00,74.7,67.3,-100.00,ESE,103,5.0,10.0,78,0.00,,,0.23,meteohub,2013-07-15 18:25:00,
2013-07-15 13:26:00,74.7,67.3,-100.00,East,100,7.0,10.0,78,0.00,,,0.23,meteohub,2013-07-15 18:26:00,
2013-07-15 13:28:00,74.7,67.3,-100.00,East,101,7.0,10.0,78,0.00,,,0.23,meteohub,2013-07-15 18:28:00,
2013-07-15 13:30:00,74.7,67.3,-100.00,East,101,6.0,10.0,78,0.00,,,0.23,meteohub,2013-07-15 18:30:00,
2013-07-15 13:32:00,74.7,67.3,-100.00,East,99,8.0,9.0,78,0.00,,,0.23,meteohub,2013-07-15 18:32:00,
2013-07-15 13:34:00,74.7,67.3,-100.00,ESE,113,7.0,9.0,78,0.00,,,0.23,meteohub,2013-07-15 18:34:00,
2013-07-15 13:35:00,74.7,67.3,-100.00,ESE,112,3.0,9.0,78,0.00,,,0.23,meteohub,2013-07-15 18:35:00,
2013-07-15 13:39:00,74.7,67.3,-100.00,East,100,4.0,10.0,78,0.00,,,0.23,meteohub,2013-07-15 18:39:00,
2013-07-15 13:40:00,74.7,67.3,-100.00,East,98,4.0,10.0,78,0.00,,,0.23,meteohub,2013-07-15 18:40:00,
2013-07-15 13:41:00,74.7,67.3,-100.00,ESE,103,5.0,10.0,78,0.00,,,0.23,meteohub,2013-07-15 18:41:00,
2013-07-15 13:44:00,74.7,67.3,-100.00,ESE,111,2.0,10.0,78,0.00,,,0.23,meteohub,2013-07-15 18:44:00,
2013-07-15 13:45:00,74.7,67.3,-100.00,ESE,111,8.0,10.0,78,0.00,,,0.23,meteohub,2013-07-15 18:45:00,
2013-07-15 13:47:00,74.7,67.3,-100.00,ESE,117,5.0,10.0,78,0.00,,,0.23,meteohub,2013-07-15 18:47:00,
2013-07-15 13:50:00,74.7,66.9,-100.00,ESE,112,7.0,10.0,77,0.00,,,0.23,meteohub,2013-07-15 18:50:00,
2013-07-15 13:51:00,74.7,67.3,-100.00,ESE,109,8.0,12.0,78,0.00,,,0.23,meteohub,2013-07-15 18:51:00,
2013-07-15 13:52:00,74.7,67.3,-100.00,ESE,109,9.0,12.0,78,0.00,,,0.23,meteohub,2013-07-15 18:52:00,
2013-07-15 13:53:00,74.7,67.3,-100.00,ESE,114,4.0,12.0,78,0.00,,,0.23,meteohub,2013-07-15 18:53:00,
2013-07-15 13:56:00,74.7,67.3,-100.00,ESE,111,5.0,12.0,78,0.00,,,0.23,meteohub,2013-07-15 18:56:00,
2013-07-15 13:57:00,74.7,67.3,-100.00,ESE,108,7.0,12.0,78,0.00,,,0.23,meteohub,2013-07-15 18:57:00,
2013-07-15 13:58:00,74.7,67.3,-100.00,ESE,110,6.0,12.0,78,0.00,,,0.23,meteohub,2013-07-15 18:58:00,
2013-07-15 13:59:00,74.7,67.3,-100.00,ESE,108,6.0,12.0,78,0.00,,,0.23,meteohub,2013-07-15 18:59:00,
2013-07-15 14:02:00,74.7,67.6,-100.00,ESE,122,10.0,12.0,79,0.00,,,0.23,meteohub,2013-07-15 19:02:00,
2013-07-15 14:04:00,74.7,67.6,-100.00,ESE,120,6.0,12.0,79,0.00,,,0.23,meteohub,2013-07-15 19:04:00,
2013-07-15 14:07:00,74.7,67.6,-100.00,ESE,113,5.0,12.0,79,0.00,,,0.23,meteohub,2013-07-15 19:07:00,
2013-07-15 14:09:00,74.7,67.3,-100.00,ESE,115,6.0,12.0,78,0.00,,,0.23,meteohub,2013-07-15 19:09:00,
2013-07-15 14:10:00,74.7,67.3,-100.00,ESE,115,5.0,12.0,78,0.00,,,0.23,meteohub,2013-07-15 19:10:00,
2013-07-15 14:12:00,74.7,66.9,-100.00,ESE,121,9.0,12.0,77,0.00,,,0.23,meteohub,2013-07-15 19:12:00,
2013-07-15 14:15:00,74.8,67.1,-100.00,ESE,122,7.0,12.0,77,0.00,,,0.23,meteohub,2013-07-15 19:15:00,
2013-07-15 14:17:00,74.8,67.1,-100.00,ESE,117,7.0,12.0,77,0.00,,,0.23,meteohub,2013-07-15 19:17:00,
2013-07-15 14:18:00,74.8,67.1,-100.00,ESE,111,7.0,12.0,77,0.00,,,0.23,meteohub,2013-07-15 19:18:00,
2013-07-15 14:20:00,74.8,67.5,-100.00,SE,125,5.0,12.0,78,0.00,,,0.23,meteohub,2013-07-15 19:20:00,
2013-07-15 14:21:00,74.8,67.5,-100.00,SE,127,9.0,13.0,78,0.00,,,0.23,meteohub,2013-07-15 19:21:00,
2013-07-15 14:24:00,75.0,67.6,-100.00,ESE,116,8.0,13.0,78,0.00,,,0.23,meteohub,2013-07-15 19:24:00,
2013-07-15 14:26:00,75.0,67.3,-100.00,ESE,112,3.0,13.0,77,0.00,,,0.23,meteohub,2013-07-15 19:26:00,
2013-07-15 14:29:00,74.8,67.5,-100.00,ESE,122,9.0,13.0,78,0.00,,,0.23,meteohub,2013-07-15 19:29:00,
2013-07-15 14:30:00,74.7,67.3,-100.00,ESE,123,7.0,13.0,78,0.00,,,0.23,meteohub,2013-07-15 19:30:00,
2013-07-15 14:31:00,74.7,67.3,-100.00,SE,126,9.0,13.0,78,0.00,,,0.23,meteohub,2013-07-15 19:31:00,
2013-07-15 14:34:00,74.7,67.3,-100.00,ESE,119,7.0,13.0,78,0.00,,,0.23,meteohub,2013-07-15 19:34:00,
2013-07-15 14:36:00,74.7,67.3,-100.00,SE,134,6.0,14.0,78,0.00,,,0.23,meteohub,2013-07-15 19:36:00,
2013-07-15 14:37:00,74.7,67.3,-100.00,SE,130,5.0,14.0,78,0.00,,,0.23,meteohub,2013-07-15 19:37:00,
2013-07-15 14:39:00,74.7,67.3,-100.00,SE,130,14.0,14.0,78,0.00,,,0.23,meteohub,2013-07-15 19:39:00,
2013-07-15 14:40:00,74.7,67.6,-100.00,ESE,119,6.0,14.0,79,0.00,,,0.23,meteohub,2013-07-15 19:40:00,
2013-07-15 14:42:00,74.7,67.6,-100.00,ESE,119,3.0,14.0,79,0.00,,,0.23,meteohub,2013-07-15 19:42:00,
2013-07-15 14:44:00,74.8,67.8,-100.00,ESE,119,11.0,14.0,79,0.00,,,0.23,meteohub,2013-07-15 19:44:00,
2013-07-15 14:46:00,74.8,67.5,-100.00,ESE,116,9.0,15.0,78,0.00,,,0.23,meteohub,2013-07-15 19:46:00,
2013-07-15 14:47:00,74.8,67.5,-100.00,ESE,117,7.0,15.0,78,0.00,,,0.23,meteohub,2013-07-15 19:47:00,
2013-07-15 14:49:00,75.0,67.6,-100.00,ESE,120,5.0,15.0,78,0.00,,,0.23,meteohub,2013-07-15 19:49:00,
2013-07-15 14:51:00,75.0,67.6,-100.00,ESE,123,4.0,15.0,78,0.00,,,0.23,meteohub,2013-07-15 19:51:00,
2013-07-15 14:52:00,75.4,68.0,-100.00,ESE,121,6.0,15.0,78,0.00,,,0.23,meteohub,2013-07-15 19:52:00,
2013-07-15 14:53:00,75.4,68.0,-100.00,ESE,123,6.0,15.0,78,0.00,,,0.23,meteohub,2013-07-15 19:53:00,
2013-07-15 14:54:00,75.4,68.0,-100.00,SE,126,5.0,15.0,78,0.00,,,0.23,meteohub,2013-07-15 19:54:00,
2013-07-15 14:57:00,75.4,67.6,-100.00,ESE,123,6.0,15.0,77,0.00,,,0.23,meteohub,2013-07-15 19:57:00,
2013-07-15 14:58:00,75.4,67.6,-100.00,ESE,119,11.0,15.0,77,0.00,,,0.23,meteohub,2013-07-15 19:58:00,
2013-07-15 14:59:00,75.4,67.6,-100.00,ESE,117,9.0,15.0,77,0.00,,,0.23,meteohub,2013-07-15 19:59:00,
2013-07-15 15:00:00,75.4,67.6,-100.00,ESE,107,5.0,15.0,77,0.00,,,0.23,meteohub,2013-07-15 20:00:00,
2013-07-15 15:02:00,75.4,67.6,-100.00,ESE,106,6.0,13.0,77,0.00,,,0.23,meteohub,2013-07-15 20:02:00,
2013-07-15 15:05:00,75.4,67.6,-100.00,East,101,6.0,13.0,77,0.00,,,0.23,meteohub,2013-07-15 20:05:00,
2013-07-15 15:07:00,75.4,68.0,-100.00,ESE,117,7.0,13.0,78,0.00,,,0.23,meteohub,2013-07-15 20:07:00,
2013-07-15 15:10:00,75.6,67.8,-100.00,SE,130,6.0,13.0,77,0.00,,,0.23,meteohub,2013-07-15 20:10:00,
2013-07-15 15:12:00,75.6,67.8,-100.00,SE,136,3.0,13.0,77,0.00,,,0.23,meteohub,2013-07-15 20:12:00,
2013-07-15 15:16:00,75.6,67.8,-100.00,SE,133,5.0,13.0,77,0.00,,,0.23,meteohub,2013-07-15 20:16:00,
2013-07-15 15:17:00,75.7,68.0,-100.00,SE,134,6.0,13.0,77,0.00,,,0.23,meteohub,2013-07-15 20:17:00,
2013-07-15 15:21:00,75.7,68.0,-100.00,ESE,116,4.0,13.0,77,0.00,,,0.23,meteohub,2013-07-15 20:21:00,
2013-07-15 15:22:00,75.7,68.0,-100.00,ESE,116,5.0,13.0,77,0.00,,,0.23,meteohub,2013-07-15 20:22:00,
2013-07-15 15:23:00,75.9,68.9,-100.00,ESE,117,5.0,13.0,79,0.00,,,0.23,meteohub,2013-07-15 20:23:00,
2013-07-15 15:27:00,75.9,67.8,-100.00,ESE,115,10.0,12.0,76,0.00,,,0.23,meteohub,2013-07-15 20:27:00,
2013-07-15 15:28:00,75.7,67.6,-100.00,ESE,113,6.0,12.0,76,0.00,,,0.23,meteohub,2013-07-15 20:28:00,
2013-07-15 15:29:00,75.7,67.6,-100.00,ESE,113,5.0,12.0,76,0.00,,,0.23,meteohub,2013-07-15 20:29:00,
2013-07-15 15:32:00,75.9,68.2,-100.00,ESE,106,9.0,11.0,77,0.00,,,0.23,meteohub,2013-07-15 20:32:00,
2013-07-15 15:33:00,75.9,68.2,-100.00,ESE,103,6.0,11.0,77,0.00,,,0.23,meteohub,2013-07-15 20:33:00,
2013-07-15 15:35:00,75.9,68.5,-100.00,East,101,6.0,11.0,78,0.00,,,0.23,meteohub,2013-07-15 20:35:00,
2013-07-15 15:37:00,75.9,68.5,-100.00,ESE,107,7.0,11.0,78,0.00,,,0.23,meteohub,2013-07-15 20:37:00,
2013-07-15 15:38:00,75.9,68.5,-100.00,ESE,114,4.0,11.0,78,0.00,,,0.23,meteohub,2013-07-15 20:38:00,
2013-07-15 15:40:00,75.9,68.2,-100.00,ESE,105,8.0,11.0,77,0.00,,,0.23,meteohub,2013-07-15 20:40:00,
2013-07-15 15:41:00,75.9,68.2,-100.00,East,95,7.0,11.0,77,0.00,,,0.23,meteohub,2013-07-15 20:41:00,
2013-07-15 15:43:00,75.9,68.5,-100.00,East,101,7.0,11.0,78,0.00,,,0.23,meteohub,2013-07-15 20:43:00,
2013-07-15 15:46:00,75.9,68.5,-100.00,ESE,116,7.0,12.0,78,0.00,,,0.23,meteohub,2013-07-15 20:46:00,
2013-07-15 15:51:00,75.6,68.2,-100.00,East,98,6.0,14.0,78,0.00,,,0.23,meteohub,2013-07-15 20:51:00,
2013-07-15 15:52:00,75.4,68.4,-100.00,ESE,105,6.0,14.0,79,0.00,,,0.23,meteohub,2013-07-15 20:52:00,
2013-07-15 15:54:00,75.0,68.0,-100.00,ESE,119,9.0,14.0,79,0.00,,,0.23,meteohub,2013-07-15 20:54:00,
2013-07-15 15:57:00,75.0,68.4,-100.00,East,90,11.0,14.0,80,0.00,,,0.23,meteohub,2013-07-15 20:57:00,
2013-07-15 15:58:00,75.0,68.7,-100.00,ESE,107,10.0,14.0,81,0.00,,,0.23,meteohub,2013-07-15 20:58:00,
2013-07-15 15:59:00,74.8,68.2,-100.00,ESE,111,9.0,14.0,80,0.00,,,0.23,meteohub,2013-07-15 20:59:00,
2013-07-15 16:00:00,74.8,68.5,-100.00,ESE,109,4.0,14.0,81,0.00,,,0.23,meteohub,2013-07-15 21:00:00,
2013-07-15 16:02:00,74.8,68.5,-100.00,ESE,115,11.0,16.0,81,0.00,,,0.23,meteohub,2013-07-15 21:02:00,
2013-07-15 16:03:00,74.8,68.5,-100.00,ESE,119,7.0,16.0,81,0.00,,,0.23,meteohub,2013-07-15 21:03:00,
2013-07-15 16:05:00,74.8,68.5,-100.00,ESE,111,4.0,16.0,81,0.00,,,0.23,meteohub,2013-07-15 21:05:00,
2013-07-15 16:07:00,74.7,68.7,-100.00,East,83,10.0,16.0,82,0.00,,,0.23,meteohub,2013-07-15 21:07:00,
2013-07-15 16:08:00,74.7,68.7,-100.00,East,90,5.0,16.0,82,0.00,,,0.23,meteohub,2013-07-15 21:08:00,
2013-07-15 16:11:00,74.7,68.7,-100.00,East,98,7.0,16.0,82,0.00,,,0.23,meteohub,2013-07-15 21:11:00,
2013-07-15 16:12:00,74.7,69.1,-100.00,East,84,4.0,16.0,83,0.00,,,0.23,meteohub,2013-07-15 21:12:00,
2013-07-15 16:13:00,74.7,69.1,-100.00,East,84,4.0,16.0,83,0.00,,,0.23,meteohub,2013-07-15 21:13:00,
2013-07-15 16:16:00,74.7,69.4,-100.00,East,90,7.0,16.0,84,0.00,,,0.23,meteohub,2013-07-15 21:16:00,
2013-07-15 16:17:00,74.7,69.4,-100.00,East,100,11.0,15.0,84,0.00,,,0.23,meteohub,2013-07-15 21:17:00,
2013-07-15 16:19:00,74.7,69.4,-100.00,ESE,105,9.0,15.0,84,0.00,,,0.23,meteohub,2013-07-15 21:19:00,
2013-07-15 16:20:00,74.5,68.9,-100.00,ESE,105,9.0,15.0,83,0.00,,,0.23,meteohub,2013-07-15 21:20:00,
2013-07-15 16:21:00,74.5,69.3,-100.00,ESE,107,7.0,11.0,84,0.00,,,0.23,meteohub,2013-07-15 21:21:00,
2013-07-15 16:23:00,74.5,69.3,-100.00,ESE,106,4.0,11.0,84,0.00,,,0.23,meteohub,2013-07-15 21:23:00,
2013-07-15 16:24:00,74.5,69.3,-100.00,ESE,109,5.0,11.0,84,0.00,,,0.23,meteohub,2013-07-15 21:24:00,
2013-07-15 16:25:00,74.5,69.3,-100.00,ESE,104,8.0,11.0,84,0.00,,,0.23,meteohub,2013-07-15 21:25:00,
2013-07-15 16:26:00,74.5,69.3,-100.00,ESE,103,7.0,11.0,84,0.00,,,0.23,meteohub,2013-07-15 21:26:00,
2013-07-15 16:28:00,74.5,69.3,-100.00,East,94,6.0,11.0,84,0.00,,,0.23,meteohub,2013-07-15 21:28:00,
2013-07-15 16:30:00,74.5,69.3,-100.00,East,96,5.0,11.0,84,0.00,,,0.23,meteohub,2013-07-15 21:30:00,
2013-07-15 16:33:00,74.5,69.3,-100.00,East,100,5.0,11.0,84,0.00,,,0.23,meteohub,2013-07-15 21:33:00,
2013-07-15 16:36:00,74.7,69.4,-100.00,ESE,108,5.0,10.0,84,0.00,,,0.23,meteohub,2013-07-15 21:36:00,
2013-07-15 16:39:00,74.7,69.4,-100.00,East,101,5.0,10.0,84,0.00,,,0.23,meteohub,2013-07-15 21:39:00,
2013-07-15 16:41:00,74.7,69.4,-100.00,East,91,6.0,12.0,84,0.00,,,0.23,meteohub,2013-07-15 21:41:00,
2013-07-15 16:42:00,74.7,69.4,-100.00,East,92,6.0,12.0,84,0.00,,,0.23,meteohub,2013-07-15 21:42:00,
2013-07-15 16:44:00,74.7,69.4,-100.00,East,97,7.0,12.0,84,0.00,,,0.23,meteohub,2013-07-15 21:44:00,
2013-07-15 16:47:00,74.7,69.1,-100.00,ESE,106,5.0,12.0,83,0.00,,,0.23,meteohub,2013-07-15 21:47:00,
2013-07-15 16:50:00,74.8,69.6,-100.00,ESE,104,6.0,12.0,84,0.00,,,0.23,meteohub,2013-07-15 21:50:00,
2013-07-15 16:52:00,75.0,69.4,-100.00,ESE,109,7.0,11.0,83,0.00,,,0.23,meteohub,2013-07-15 21:52:00,
2013-07-15 16:56:00,75.0,69.4,-100.00,ESE,105,7.0,11.0,83,0.00,,,0.23,meteohub,2013-07-15 21:56:00,
2013-07-15 16:57:00,75.0,69.4,-100.00,ESE,103,4.0,11.0,83,0.00,,,0.23,meteohub,2013-07-15 21:57:00,
2013-07-15 16:59:00,75.0,69.1,-100.00,ESE,105,5.0,11.0,82,0.00,,,0.23,meteohub,2013-07-15 21:59:00,
2013-07-15 17:01:00,75.4,69.4,-100.00,East,100,4.0,11.0,82,0.00,,,0.23,meteohub,2013-07-15 22:01:00,
2013-07-15 17:02:00,75.4,69.4,-100.00,ESE,107,5.0,11.0,82,0.00,,,0.23,meteohub,2013-07-15 22:02:00,
2013-07-15 17:04:00,75.4,69.4,-100.00,ESE,104,6.0,11.0,82,0.00,,,0.23,meteohub,2013-07-15 22:04:00,
2013-07-15 17:07:00,75.4,69.1,-100.00,East,89,6.0,11.0,81,0.00,,,0.23,meteohub,2013-07-15 22:07:00,
2013-07-15 17:09:00,75.4,69.1,-100.00,ESE,104,3.0,11.0,81,0.00,,,0.23,meteohub,2013-07-15 22:09:00,
2013-07-15 17:11:00,75.4,69.1,-100.00,East,88,6.0,11.0,81,0.00,,,0.23,meteohub,2013-07-15 22:11:00,
2013-07-15 17:12:00,75.4,69.1,-100.00,ESE,102,4.0,12.0,81,0.00,,,0.23,meteohub,2013-07-15 22:12:00,
2013-07-15 17:15:00,75.4,69.1,-100.00,ENE,78,3.0,12.0,81,0.00,,,0.23,meteohub,2013-07-15 22:15:00,
2013-07-15 17:17:00,75.4,69.1,-100.00,East,92,4.0,12.0,81,0.00,,,0.23,meteohub,2013-07-15 22:17:00,
2013-07-15 17:18:00,75.4,69.1,-100.00,East,86,5.0,12.0,81,0.00,,,0.23,meteohub,2013-07-15 22:18:00,
2013-07-15 17:21:00,75.4,68.7,-100.00,East,88,3.0,12.0,80,0.00,,,0.23,meteohub,2013-07-15 22:21:00,
2013-07-15 17:23:00,75.4,68.7,-100.00,East,96,5.0,12.0,80,0.00,,,0.23,meteohub,2013-07-15 22:23:00,
2013-07-15 17:27:00,75.6,68.9,-100.00,East,89,4.0,11.0,80,0.00,,,0.23,meteohub,2013-07-15 22:27:00,
2013-07-15 17:28:00,75.6,68.9,-100.00,East,89,7.0,11.0,80,0.00,,,0.23,meteohub,2013-07-15 22:28:00,
2013-07-15 17:29:00,75.4,68.7,-100.00,East,88,4.0,11.0,80,0.00,,,0.23,meteohub,2013-07-15 22:29:00,
2013-07-15 17:32:00,75.6,68.9,-100.00,East,88,4.0,11.0,80,0.00,,,0.23,meteohub,2013-07-15 22:32:00,
2013-07-15 17:33:00,75.6,68.9,-100.00,East,92,4.0,11.0,80,0.00,,,0.23,meteohub,2013-07-15 22:33:00,
2013-07-15 17:36:00,75.6,68.9,-100.00,East,92,5.0,9.0,80,0.00,,,0.23,meteohub,2013-07-15 22:36:00,
2013-07-15 17:37:00,75.6,68.9,-100.00,East,94,7.0,9.0,80,0.00,,,0.23,meteohub,2013-07-15 22:37:00,
2013-07-15 17:38:00,75.6,68.9,-100.00,East,98,4.0,9.0,80,0.00,,,0.23,meteohub,2013-07-15 22:38:00,
2013-07-15 17:41:00,75.6,68.9,-100.00,East,93,6.0,7.0,80,0.00,,,0.23,meteohub,2013-07-15 22:41:00,
2013-07-15 17:42:00,75.6,68.5,-100.00,East,91,5.0,7.0,79,0.00,,,0.23,meteohub,2013-07-15 22:42:00,
2013-07-15 17:43:00,75.6,68.5,-100.00,East,91,4.0,7.0,79,0.00,,,0.23,meteohub,2013-07-15 22:43:00,
2013-07-15 17:44:00,75.6,68.9,-100.00,East,91,2.0,7.0,80,0.00,,,0.23,meteohub,2013-07-15 22:44:00,
2013-07-15 17:47:00,75.6,68.9,-100.00,East,90,4.0,9.0,80,0.00,,,0.23,meteohub,2013-07-15 22:47:00,
2013-07-15 17:48:00,75.6,68.9,-100.00,East,90,3.0,9.0,80,0.00,,,0.23,meteohub,2013-07-15 22:48:00,
2013-07-15 17:49:00,75.6,68.9,-100.00,East,90,3.0,9.0,80,0.00,,,0.23,meteohub,2013-07-15 22:49:00,
2013-07-15 17:53:00,75.6,68.5,-100.00,East,91,4.0,9.0,79,0.00,,,0.23,meteohub,2013-07-15 22:53:00,
2013-07-15 17:54:00,75.6,68.5,-100.00,East,91,3.0,9.0,79,0.00,,,0.23,meteohub,2013-07-15 22:54:00,
2013-07-15 17:55:00,75.7,68.7,-100.00,East,91,4.0,9.0,79,0.00,,,0.23,meteohub,2013-07-15 22:55:00,
2013-07-15 17:58:00,75.7,68.7,-100.00,East,88,3.0,9.0,79,0.00,,,0.23,meteohub,2013-07-15 22:58:00,
2013-07-15 17:59:00,75.7,68.7,-100.00,East,88,3.0,9.0,79,0.00,,,0.23,meteohub,2013-07-15 22:59:00,
2013-07-15 18:02:00,75.9,69.3,-100.00,East,88,5.0,7.0,80,0.00,,,0.23,meteohub,2013-07-15 23:02:00,
2013-07-15 18:03:00,75.7,68.7,-100.00,East,88,4.0,7.0,79,0.00,,,0.23,meteohub,2013-07-15 23:03:00,
2013-07-15 18:04:00,75.9,68.9,-100.00,East,88,2.0,7.0,79,0.00,,,0.23,meteohub,2013-07-15 23:04:00,
2013-07-15 18:05:00,75.9,69.3,-100.00,East,88,2.0,7.0,80,0.00,,,0.23,meteohub,2013-07-15 23:05:00,
2013-07-15 18:08:00,75.9,68.9,-100.00,East,88,4.0,7.0,79,0.00,,,0.23,meteohub,2013-07-15 23:08:00,
2013-07-15 18:09:00,75.9,68.9,-100.00,East,88,5.0,7.0,79,0.00,,,0.23,meteohub,2013-07-15 23:09:00,
2013-07-15 18:10:00,75.9,68.9,-100.00,East,88,6.0,7.0,79,0.00,,,0.23,meteohub,2013-07-15 23:10:00,
2013-07-15 18:13:00,75.9,68.9,-100.00,East,88,5.0,7.0,79,0.00,,,0.23,meteohub,2013-07-15 23:13:00,
2013-07-15 18:15:00,75.9,68.9,-100.00,East,90,4.0,7.0,79,0.00,,,0.23,meteohub,2013-07-15 23:15:00,
2013-07-15 18:16:00,75.9,68.9,-100.00,East,90,4.0,7.0,79,0.00,,,0.23,meteohub,2013-07-15 23:16:00,
2013-07-15 18:18:00,75.9,68.9,-100.00,East,99,9.0,9.0,79,0.00,,,0.23,meteohub,2013-07-15 23:18:00,
2013-07-15 18:20:00,75.9,68.9,-100.00,East,98,2.0,7.0,79,0.00,,,0.23,meteohub,2013-07-15 23:20:00,
2013-07-15 18:21:00,75.9,68.9,-100.00,East,92,4.0,9.0,79,0.00,,,0.23,meteohub,2013-07-15 23:21:00,
2013-07-15 18:24:00,75.9,68.9,-100.00,East,92,3.0,9.0,79,0.00,,,0.23,meteohub,2013-07-15 23:24:00,
2013-07-15 18:25:00,75.9,68.9,-100.00,East,92,3.0,9.0,79,0.00,,,0.23,meteohub,2013-07-15 23:25:00,
2013-07-15 18:26:00,75.9,68.9,-100.00,East,94,7.0,9.0,79,0.00,,,0.23,meteohub,2013-07-15 23:26:00,
2013-07-15 18:27:00,75.9,68.9,-100.00,East,98,6.0,9.0,79,0.00,,,0.23,meteohub,2013-07-15 23:27:00,
2013-07-15 18:30:00,75.9,68.9,-100.00,ESE,105,7.0,9.0,79,0.00,,,0.23,meteohub,2013-07-15 23:30:00,
2013-07-15 18:33:00,75.7,68.7,-100.00,East,100,5.0,9.0,79,0.00,,,0.23,meteohub,2013-07-15 23:33:00,
2013-07-15 18:35:00,75.7,68.7,-100.00,East,94,5.0,9.0,79,0.00,,,0.23,meteohub,2013-07-15 23:35:00,
2013-07-15 18:36:00,75.7,68.7,-100.00,East,92,3.0,9.0,79,0.00,,,0.23,meteohub,2013-07-15 23:36:00,
2013-07-15 18:38:00,75.7,68.7,-100.00,East,92,6.0,9.0,79,0.00,,,0.23,meteohub,2013-07-15 23:38:00,
2013-07-15 18:40:00,75.7,68.7,-100.00,East,91,5.0,9.0,79,0.00,,,0.23,meteohub,2013-07-15 23:40:00,
2013-07-15 18:41:00,75.7,68.7,-100.00,East,91,5.0,9.0,79,0.00,,,0.23,meteohub,2013-07-15 23:41:00,
2013-07-15 18:43:00,75.7,68.7,-100.00,East,91,2.0,9.0,79,0.00,,,0.23,meteohub,2013-07-15 23:43:00,
2013-07-15 18:44:00,75.7,68.7,-100.00,East,91,2.0,9.0,79,0.00,,,0.23,meteohub,2013-07-15 23:44:00,
2013-07-15 18:46:00,75.7,69.1,-100.00,East,91,4.0,9.0,80,0.00,,,0.23,meteohub,2013-07-15 23:46:00,
2013-07-15 18:47:00,75.7,69.1,-100.00,East,91,3.0,9.0,80,0.00,,,0.23,meteohub,2013-07-15 23:47:00,
2013-07-15 18:49:00,75.9,69.3,-100.00,East,91,5.0,9.0,80,0.00,,,0.23,meteohub,2013-07-15 23:49:00,
2013-07-15 18:51:00,75.7,69.1,-100.00,East,91,2.0,7.0,80,0.00,,,0.23,meteohub,2013-07-15 23:51:00,
2013-07-15 18:52:00,75.7,69.1,-100.00,East,91,3.0,7.0,80,0.00,,,0.23,meteohub,2013-07-15 23:52:00,
2013-07-15 18:54:00,75.9,69.3,-100.00,East,91,1.0,7.0,80,0.00,,,0.23,meteohub,2013-07-15 23:54:00,
2013-07-15 18:56:00,75.9,69.3,-100.00,East,92,6.0,6.0,80,0.00,,,0.23,meteohub,2013-07-15 23:56:00,
2013-07-15 18:58:00,75.7,69.1,-100.00,East,94,6.0,6.0,80,0.00,,,0.23,meteohub,2013-07-15 23:58:00,
2013-07-15 19:00:00,75.9,69.3,-100.00,East,94,3.0,6.0,80,0.00,,,0.23,meteohub,2013-07-16 00:00:00,
2013-07-15 19:02:00,75.9,69.3,-100.00,East,91,4.0,7.0,80,0.00,,,0.23,meteohub,2013-07-16 00:02:00,
2013-07-15 19:05:00,75.9,69.3,-100.00,East,90,3.0,7.0,80,0.00,,,0.23,meteohub,2013-07-16 00:05:00,
2013-07-15 19:09:00,75.7,69.1,-100.00,East,90,3.0,9.0,80,0.00,,,0.23,meteohub,2013-07-16 00:09:00,
2013-07-15 19:10:00,75.7,69.1,-100.00,East,90,6.0,9.0,80,0.00,,,0.23,meteohub,2013-07-16 00:10:00,
2013-07-15 19:11:00,75.7,69.1,-100.00,East,90,7.0,9.0,80,0.00,,,0.23,meteohub,2013-07-16 00:11:00,
2013-07-15 19:15:00,75.7,69.4,-100.00,East,86,4.0,9.0,81,0.00,,,0.23,meteohub,2013-07-16 00:15:00,
2013-07-15 19:17:00,75.7,69.4,-100.00,East,86,4.0,9.0,81,0.00,,,0.23,meteohub,2013-07-16 00:17:00,
2013-07-15 19:20:00,75.6,69.3,-100.00,East,86,5.0,9.0,81,0.00,,,0.23,meteohub,2013-07-16 00:20:00,
2013-07-15 19:22:00,75.6,69.3,-100.00,East,86,3.0,7.0,81,0.00,,,0.23,meteohub,2013-07-16 00:22:00,
2013-07-15 19:23:00,75.6,69.3,-100.00,East,86,4.0,7.0,81,0.00,,,0.23,meteohub,2013-07-16 00:23:00,
2013-07-15 19:26:00,75.6,69.3,-100.00,East,83,4.0,7.0,81,0.00,,,0.23,meteohub,2013-07-16 00:26:00,
2013-07-15 19:28:00,75.6,69.3,-100.00,East,85,4.0,7.0,81,0.00,,,0.23,meteohub,2013-07-16 00:28:00,
2013-07-15 19:33:00,75.6,69.3,-100.00,East,86,4.0,7.0,81,0.00,,,0.23,meteohub,2013-07-16 00:33:00,
2013-07-15 19:39:00,75.4,69.4,-100.00,East,86,3.0,7.0,82,0.00,,,0.23,meteohub,2013-07-16 00:39:00,
2013-07-15 19:44:00,75.4,69.4,-100.00,East,86,2.0,6.0,82,0.00,,,0.23,meteohub,2013-07-16 00:44:00,
2013-07-15 19:45:00,75.4,69.4,-100.00,East,86,5.0,6.0,82,0.00,,,0.23,meteohub,2013-07-16 00:45:00,
2013-07-15 19:49:00,75.4,69.8,-100.00,East,86,3.0,7.0,83,0.00,,,0.23,meteohub,2013-07-16 00:49:00,
2013-07-15 19:50:00,75.4,69.8,-100.00,East,86,5.0,7.0,83,0.00,,,0.23,meteohub,2013-07-16 00:50:00,
2013-07-15 19:51:00,75.4,69.8,-100.00,East,86,2.0,7.0,83,0.00,,,0.23,meteohub,2013-07-16 00:51:00,
2013-07-15 19:54:00,75.4,69.8,-100.00,East,86,2.0,7.0,83,0.00,,,0.23,meteohub,2013-07-16 00:54:00,
2013-07-15 19:56:00,75.4,69.8,-100.00,East,86,3.0,6.0,83,0.00,,,0.23,meteohub,2013-07-16 00:56:00,
2013-07-15 19:57:00,75.4,69.8,-100.00,East,86,3.0,6.0,83,0.00,,,0.23,meteohub,2013-07-16 00:57:00,
2013-07-15 20:00:00,75.4,69.8,-100.00,East,86,1.0,6.0,83,0.00,,,0.23,meteohub,2013-07-16 01:00:00,
2013-07-15 20:02:00,75.4,69.8,-100.00,East,86,2.0,6.0,83,0.00,,,0.23,meteohub,2013-07-16 01:02:00,
2013-07-15 20:04:00,75.4,69.8,-100.00,East,86,3.0,6.0,83,0.00,,,0.23,meteohub,2013-07-16 01:04:00,
2013-07-15 20:06:00,75.0,69.4,-100.00,East,86,2.0,5.0,83,0.00,,,0.23,meteohub,2013-07-16 01:06:00,
2013-07-15 20:07:00,75.0,69.8,-100.00,East,86,3.0,5.0,84,0.00,,,0.23,meteohub,2013-07-16 01:07:00,
2013-07-15 20:08:00,75.0,69.8,-100.00,East,86,2.0,5.0,84,0.00,,,0.23,meteohub,2013-07-16 01:08:00,
2013-07-15 20:09:00,75.0,69.8,-100.00,East,86,2.0,5.0,84,0.00,,,0.23,meteohub,2013-07-16 01:09:00,
2013-07-15 20:12:00,75.0,69.8,-100.00,East,86,2.0,5.0,84,0.00,,,0.23,meteohub,2013-07-16 01:12:00,
2013-07-15 20:13:00,75.0,69.8,-100.00,East,86,2.0,5.0,84,0.00,,,0.23,meteohub,2013-07-16 01:13:00,
2013-07-15 20:14:00,75.0,69.8,-100.00,East,86,2.0,5.0,84,0.00,,,0.23,meteohub,2013-07-16 01:14:00,
2013-07-15 20:15:00,75.0,69.8,-100.00,East,86,2.0,5.0,84,0.00,,,0.23,meteohub,2013-07-16 01:15:00,
2013-07-15 20:18:00,75.0,69.8,-100.00,East,86,2.0,5.0,84,0.00,,,0.23,meteohub,2013-07-16 01:18:00,
2013-07-15 20:19:00,75.0,69.8,-100.00,East,86,2.0,5.0,84,0.00,,,0.23,meteohub,2013-07-16 01:19:00,
2013-07-15 20:20:00,75.0,69.8,-100.00,East,86,2.0,5.0,84,0.00,,,0.23,meteohub,2013-07-16 01:20:00,
2013-07-15 20:21:00,75.0,69.8,-100.00,East,86,3.0,5.0,84,0.00,,,0.23,meteohub,2013-07-16 01:21:00,
2013-07-15 20:23:00,75.0,70.2,-100.00,East,86,2.0,5.0,85,0.00,,,0.23,meteohub,2013-07-16 01:23:00,
2013-07-15 20:25:00,75.0,70.2,-100.00,East,86,3.0,5.0,85,0.00,,,0.23,meteohub,2013-07-16 01:25:00,
2013-07-15 20:26:00,74.8,70.0,-100.00,East,86,3.0,4.0,85,0.00,,,0.23,meteohub,2013-07-16 01:26:00,
2013-07-15 20:28:00,74.8,70.0,-100.00,East,86,2.0,4.0,85,0.00,,,0.23,meteohub,2013-07-16 01:28:00,
2013-07-15 20:30:00,74.8,70.0,-100.00,East,86,1.0,4.0,85,0.00,,,0.23,meteohub,2013-07-16 01:30:00,
2013-07-15 20:32:00,74.8,70.0,-100.00,East,86,2.0,4.0,85,0.00,,,0.23,meteohub,2013-07-16 01:32:00,
2013-07-15 20:34:00,74.8,70.0,-100.00,East,86,3.0,4.0,85,0.00,,,0.23,meteohub,2013-07-16 01:34:00,
2013-07-15 20:35:00,74.8,70.0,-100.00,East,86,2.0,4.0,85,0.00,,,0.23,meteohub,2013-07-16 01:35:00,
2013-07-15 20:37:00,74.7,69.8,-100.00,East,86,2.0,4.0,85,0.00,,,0.23,meteohub,2013-07-16 01:37:00,
2013-07-15 20:41:00,74.7,70.2,-100.00,East,86,5.0,5.0,86,0.00,,,0.23,meteohub,2013-07-16 01:41:00,
2013-07-15 20:42:00,74.7,70.2,-100.00,East,86,2.0,4.0,86,0.00,,,0.23,meteohub,2013-07-16 01:42:00,
2013-07-15 20:43:00,74.7,70.2,-100.00,East,86,4.0,4.0,86,0.00,,,0.23,meteohub,2013-07-16 01:43:00,
2013-07-15 20:46:00,74.7,70.2,-100.00,East,86,3.0,5.0,86,0.00,,,0.23,meteohub,2013-07-16 01:46:00,
2013-07-15 20:47:00,74.7,70.2,-100.00,East,86,3.0,5.0,86,0.00,,,0.23,meteohub,2013-07-16 01:47:00,
2013-07-15 20:51:00,74.7,70.2,-100.00,East,86,3.0,5.0,86,0.00,,,0.23,meteohub,2013-07-16 01:51:00,
2013-07-15 20:52:00,74.7,70.2,-100.00,East,86,3.0,5.0,86,0.00,,,0.23,meteohub,2013-07-16 01:52:00,
2013-07-15 20:53:00,74.7,70.2,-100.00,East,86,3.0,5.0,86,0.00,,,0.23,meteohub,2013-07-16 01:53:00,
2013-07-15 20:56:00,74.7,70.2,-100.00,East,86,3.0,5.0,86,0.00,,,0.23,meteohub,2013-07-16 01:56:00,
2013-07-15 20:58:00,74.7,70.2,-100.00,East,86,3.0,5.0,86,0.00,,,0.23,meteohub,2013-07-16 01:58:00,
2013-07-15 21:01:00,74.7,70.2,-100.00,East,86,4.0,5.0,86,0.00,,,0.23,meteohub,2013-07-16 02:01:00,
2013-07-15 21:03:00,74.7,70.2,-100.00,East,86,2.0,5.0,86,0.00,,,0.23,meteohub,2013-07-16 02:03:00,
2013-07-15 21:04:00,74.7,70.2,-100.00,East,86,3.0,5.0,86,0.00,,,0.23,meteohub,2013-07-16 02:04:00,
2013-07-15 21:05:00,74.7,70.2,-100.00,East,86,3.0,5.0,86,0.00,,,0.23,meteohub,2013-07-16 02:05:00,
2013-07-15 21:08:00,74.7,70.2,-100.00,East,86,3.0,5.0,86,0.00,,,0.23,meteohub,2013-07-16 02:08:00,
2013-07-15 21:09:00,74.7,70.5,-100.00,East,86,3.0,5.0,87,0.00,,,0.23,meteohub,2013-07-16 02:09:00,
2013-07-15 21:10:00,74.7,70.5,-100.00,East,86,4.0,5.0,87,0.00,,,0.23,meteohub,2013-07-16 02:10:00,
2013-07-15 21:13:00,74.7,70.5,-100.00,East,83,6.0,6.0,87,0.00,,,0.23,meteohub,2013-07-16 02:13:00,
2013-07-15 21:14:00,74.7,70.5,-100.00,East,84,10.0,10.0,87,0.00,,,0.23,meteohub,2013-07-16 02:14:00,
2013-07-15 21:16:00,74.7,70.5,-100.00,East,90,8.0,13.0,87,0.00,,,0.23,meteohub,2013-07-16 02:16:00,
2013-07-15 21:19:00,74.7,70.2,-100.00,East,101,9.0,13.0,86,0.00,,,0.23,meteohub,2013-07-16 02:19:00,
2013-07-15 21:20:00,74.7,69.8,-100.00,ESE,121,7.0,13.0,85,0.00,,,0.23,meteohub,2013-07-16 02:20:00,
2013-07-15 21:21:00,74.7,69.8,-100.00,ESE,118,6.0,13.0,85,0.00,,,0.23,meteohub,2013-07-16 02:21:00,
2013-07-15 21:23:00,74.7,69.8,-100.00,ESE,114,9.0,13.0,85,0.00,,,0.23,meteohub,2013-07-16 02:23:00,
2013-07-15 21:26:00,74.7,69.4,-100.00,ESE,113,6.0,13.0,84,0.00,,,0.23,meteohub,2013-07-16 02:26:00,
2013-07-15 21:29:00,74.7,69.4,-100.00,ESE,113,4.0,13.0,84,0.00,,,0.23,meteohub,2013-07-16 02:29:00,
2013-07-15 21:31:00,74.5,69.3,-100.00,ESE,111,4.0,13.0,84,0.00,,,0.23,meteohub,2013-07-16 02:31:00,
2013-07-15 21:32:00,74.5,68.9,-100.00,ESE,109,7.0,13.0,83,0.00,,,0.23,meteohub,2013-07-16 02:32:00,
2013-07-15 21:34:00,74.1,68.5,-100.00,ESE,105,4.0,13.0,83,0.00,,,0.23,meteohub,2013-07-16 02:34:00,
2013-07-15 21:36:00,74.1,68.5,-100.00,ESE,104,5.0,11.0,83,0.00,,,0.23,meteohub,2013-07-16 02:36:00,
2013-07-15 21:37:00,74.1,68.5,-100.00,ESE,105,4.0,11.0,83,0.00,,,0.23,meteohub,2013-07-16 02:37:00,
2013-07-15 21:38:00,73.9,68.4,-100.00,ESE,105,3.0,11.0,83,0.00,,,0.23,meteohub,2013-07-16 02:38:00,
2013-07-15 21:41:00,73.9,68.4,-100.00,ESE,104,4.0,10.0,83,0.00,,,0.23,meteohub,2013-07-16 02:41:00,
2013-07-15 21:43:00,73.9,68.4,-100.00,ESE,105,5.0,10.0,83,0.00,,,0.23,meteohub,2013-07-16 02:43:00,
2013-07-15 21:44:00,73.9,68.4,-100.00,ESE,105,4.0,10.0,83,0.00,,,0.23,meteohub,2013-07-16 02:44:00,
2013-07-15 21:45:00,73.9,68.4,-100.00,ESE,105,5.0,10.0,83,0.00,,,0.23,meteohub,2013-07-16 02:45:00,
2013-07-15 21:47:00,73.8,68.5,-100.00,ESE,105,3.0,10.0,84,0.00,,,0.23,meteohub,2013-07-16 02:47:00,
2013-07-15 21:48:00,73.6,68.4,-100.00,ESE,104,6.0,10.0,84,0.00,,,0.23,meteohub,2013-07-16 02:48:00,
2013-07-15 21:50:00,73.6,68.4,-100.00,ESE,104,4.0,10.0,84,0.00,,,0.23,meteohub,2013-07-16 02:50:00,
2013-07-15 21:52:00,73.2,68.2,-100.00,ESE,104,5.0,10.0,84,0.00,,,0.23,meteohub,2013-07-16 02:52:00,
2013-07-15 21:55:00,73.2,68.2,-100.00,ESE,105,5.0,10.0,84,0.00,,,0.23,meteohub,2013-07-16 02:55:00,
2013-07-15 21:57:00,73.2,68.2,-100.00,ESE,105,4.0,9.0,84,0.00,,,0.23,meteohub,2013-07-16 02:57:00,
2013-07-15 22:00:00,73.0,68.0,-100.00,ESE,105,3.0,9.0,84,0.00,,,0.23,meteohub,2013-07-16 03:00:00,
2013-07-15 22:01:00,73.0,68.0,-100.00,ESE,107,4.0,8.0,84,0.00,,,0.23,meteohub,2013-07-16 03:01:00,
2013-07-15 22:03:00,73.0,68.0,-100.00,ESE,112,3.0,8.0,84,0.00,,,0.23,meteohub,2013-07-16 03:03:00,
2013-07-15 22:05:00,72.9,67.8,-100.00,ESE,113,3.0,8.0,84,0.00,,,0.23,meteohub,2013-07-16 03:05:00,
2013-07-15 22:06:00,72.9,67.8,-100.00,ESE,113,4.0,8.0,84,0.00,,,0.23,meteohub,2013-07-16 03:06:00,
2013-07-15 22:08:00,72.7,67.6,-100.00,ESE,113,5.0,8.0,84,0.00,,,0.23,meteohub,2013-07-16 03:08:00,
2013-07-15 22:09:00,72.7,67.6,-100.00,ESE,113,5.0,8.0,84,0.00,,,0.23,meteohub,2013-07-16 03:09:00,
2013-07-15 22:10:00,72.5,67.5,-100.00,ESE,117,4.0,8.0,84,0.00,,,0.23,meteohub,2013-07-16 03:10:00,
2013-07-15 22:11:00,72.5,67.5,-100.00,ESE,117,4.0,8.0,84,0.00,,,0.23,meteohub,2013-07-16 03:11:00,
2013-07-15 22:14:00,72.5,67.5,-100.00,ESE,117,2.0,8.0,84,0.00,,,0.23,meteohub,2013-07-16 03:14:00,
2013-07-15 22:15:00,72.5,67.5,-100.00,ESE,117,4.0,8.0,84,0.00,,,0.23,meteohub,2013-07-16 03:15:00,
2013-07-15 22:16:00,72.5,67.5,-100.00,ESE,117,3.0,8.0,84,0.00,,,0.23,meteohub,2013-07-16 03:16:00,
2013-07-15 22:19:00,72.5,67.5,-100.00,ESE,117,4.0,8.0,84,0.00,,,0.23,meteohub,2013-07-16 03:19:00,
2013-07-15 22:20:00,72.3,67.3,-100.00,ESE,117,3.0,8.0,84,0.00,,,0.23,meteohub,2013-07-16 03:20:00,
2013-07-15 22:22:00,72.3,67.3,-100.00,ESE,117,3.0,7.0,84,0.00,,,0.23,meteohub,2013-07-16 03:22:00,
2013-07-15 22:25:00,72.3,67.3,-100.00,ESE,117,3.0,7.0,84,0.00,,,0.23,meteohub,2013-07-16 03:25:00,
2013-07-15 22:27:00,72.3,67.3,-100.00,ESE,117,4.0,6.0,84,0.00,,,0.23,meteohub,2013-07-16 03:27:00,
2013-07-15 22:28:00,72.1,67.1,-100.00,ESE,117,2.0,6.0,84,0.00,,,0.23,meteohub,2013-07-16 03:28:00,
2013-07-15 22:31:00,72.1,67.1,-100.00,ESE,117,2.0,6.0,84,0.00,,,0.23,meteohub,2013-07-16 03:31:00,
2013-07-15 22:34:00,72.1,67.1,-100.00,ESE,117,3.0,6.0,84,0.00,,,0.23,meteohub,2013-07-16 03:34:00,
2013-07-15 22:35:00,72.1,67.1,-100.00,ESE,117,3.0,6.0,84,0.00,,,0.23,meteohub,2013-07-16 03:35:00,
2013-07-15 22:36:00,72.1,67.1,-100.00,ESE,117,4.0,5.0,84,0.00,,,0.23,meteohub,2013-07-16 03:36:00,
2013-07-15 22:37:00,72.1,67.1,-100.00,ESE,117,2.0,5.0,84,0.00,,,0.23,meteohub,2013-07-16 03:37:00,
2013-07-15 22:39:00,72.1,67.1,-100.00,ESE,117,3.0,5.0,84,0.00,,,0.23,meteohub,2013-07-16 03:39:00,
2013-07-15 22:41:00,72.1,67.1,-100.00,ESE,117,3.0,5.0,84,0.00,,,0.23,meteohub,2013-07-16 03:41:00,
2013-07-15 22:42:00,72.1,67.1,-100.00,ESE,117,4.0,5.0,84,0.00,,,0.23,meteohub,2013-07-16 03:42:00,
2013-07-15 22:45:00,72.0,66.9,-100.00,ESE,117,6.0,6.0,84,0.00,,,0.23,meteohub,2013-07-16 03:45:00,
2013-07-15 22:47:00,72.0,67.3,-100.00,ESE,117,4.0,5.0,85,0.00,,,0.23,meteohub,2013-07-16 03:47:00,
2013-07-15 22:48:00,72.0,67.3,-100.00,ESE,117,5.0,5.0,85,0.00,,,0.23,meteohub,2013-07-16 03:48:00,
2013-07-15 22:51:00,71.8,67.1,-100.00,ESE,117,2.0,6.0,85,0.00,,,0.23,meteohub,2013-07-16 03:51:00,
2013-07-15 22:52:00,71.8,67.1,-100.00,ESE,117,4.0,6.0,85,0.00,,,0.23,meteohub,2013-07-16 03:52:00,
2013-07-15 22:55:00,71.8,67.1,-100.00,ESE,115,5.0,6.0,85,0.00,,,0.23,meteohub,2013-07-16 03:55:00,
2013-07-15 22:56:00,71.8,67.1,-100.00,ESE,115,3.0,6.0,85,0.00,,,0.23,meteohub,2013-07-16 03:56:00,
2013-07-15 22:57:00,71.8,67.1,-100.00,ESE,115,4.0,6.0,85,0.00,,,0.23,meteohub,2013-07-16 03:57:00,
2013-07-15 22:58:00,71.8,67.1,-100.00,ESE,115,3.0,6.0,85,0.00,,,0.23,meteohub,2013-07-16 03:58:00,
2013-07-15 23:00:00,71.8,67.1,-100.00,ESE,114,3.0,6.0,85,0.00,,,0.23,meteohub,2013-07-16 04:00:00,
2013-07-15 23:01:00,71.8,67.1,-100.00,ESE,114,2.0,6.0,85,0.00,,,0.23,meteohub,2013-07-16 04:01:00,
2013-07-15 23:02:00,71.8,67.1,-100.00,ESE,114,3.0,6.0,85,0.00,,,0.23,meteohub,2013-07-16 04:02:00,
2013-07-15 23:06:00,71.8,67.1,-100.00,ESE,114,3.0,6.0,85,0.00,,,0.23,meteohub,2013-07-16 04:06:00,
2013-07-15 23:07:00,71.8,67.1,-100.00,ESE,114,3.0,6.0,85,0.00,,,0.23,meteohub,2013-07-16 04:07:00,
2013-07-15 23:11:00,71.8,67.1,-100.00,ESE,113,3.0,6.0,85,0.00,,,0.23,meteohub,2013-07-16 04:11:00,
2013-07-15 23:12:00,71.6,66.9,-100.00,ESE,113,3.0,6.0,85,0.00,,,0.23,meteohub,2013-07-16 04:12:00,
2013-07-15 23:14:00,71.6,66.9,-100.00,ESE,113,4.0,6.0,85,0.00,,,0.23,meteohub,2013-07-16 04:14:00,
2013-07-15 23:16:00,71.6,66.9,-100.00,ESE,111,5.0,6.0,85,0.00,,,0.23,meteohub,2013-07-16 04:16:00,
2013-07-15 23:17:00,71.6,67.1,-100.00,ESE,111,3.0,6.0,86,0.00,,,0.23,meteohub,2013-07-16 04:17:00,
2013-07-15 23:19:00,71.6,67.1,-100.00,ESE,111,3.0,6.0,86,0.00,,,0.23,meteohub,2013-07-16 04:19:00,
2013-07-15 23:22:00,71.6,67.1,-100.00,ESE,110,4.0,7.0,86,0.00,,,0.23,meteohub,2013-07-16 04:22:00,
2013-07-15 23:23:00,71.6,67.1,-100.00,ESE,111,7.0,7.0,86,0.00,,,0.23,meteohub,2013-07-16 04:23:00,
2013-07-15 23:24:00,71.6,67.1,-100.00,ESE,109,4.0,7.0,86,0.00,,,0.23,meteohub,2013-07-16 04:24:00,
2013-07-15 23:27:00,71.6,67.1,-100.00,ESE,107,7.0,7.0,86,0.00,,,0.23,meteohub,2013-07-16 04:27:00,
2013-07-15 23:28:00,71.6,67.1,-100.00,ESE,107,5.0,7.0,86,0.00,,,0.23,meteohub,2013-07-16 04:28:00,
2013-07-15 23:29:00,71.6,67.1,-100.00,ESE,107,3.0,7.0,86,0.00,,,0.23,meteohub,2013-07-16 04:29:00,
2013-07-15 23:30:00,71.4,67.1,-100.00,ESE,107,5.0,7.0,86,0.00,,,0.23,meteohub,2013-07-16 04:30:00,
2013-07-15 23:33:00,71.4,67.1,-100.00,ESE,106,7.0,7.0,86,0.00,,,0.23,meteohub,2013-07-16 04:33:00,
2013-07-15 23:35:00,71.4,67.1,-100.00,ESE,105,4.0,7.0,86,0.00,,,0.23,meteohub,2013-07-16 04:35:00,
2013-07-15 23:36:00,71.4,67.1,-100.00,ESE,106,4.0,8.0,86,0.00,,,0.23,meteohub,2013-07-16 04:36:00,
2013-07-15 23:38:00,71.4,67.1,-100.00,ESE,107,7.0,8.0,86,0.00,,,0.23,meteohub,2013-07-16 04:38:00,
2013-07-15 23:39:00,71.4,67.1,-100.00,ESE,107,6.0,8.0,86,0.00,,,0.23,meteohub,2013-07-16 04:39:00,
2013-07-15 23:40:00,71.4,67.3,-100.00,ESE,107,3.0,8.0,87,0.00,,,0.23,meteohub,2013-07-16 04:40:00,
2013-07-15 23:41:00,71.4,67.3,-100.00,ESE,107,4.0,8.0,87,0.00,,,0.23,meteohub,2013-07-16 04:41:00,
2013-07-15 23:43:00,71.4,67.3,-100.00,ESE,107,5.0,8.0,87,0.00,,,0.23,meteohub,2013-07-16 04:43:00,
2013-07-15 23:45:00,71.4,67.3,-100.00,ESE,107,5.0,8.0,87,0.00,,,0.23,meteohub,2013-07-16 04:45:00,
2013-07-15 23:46:00,71.4,67.3,-100.00,ESE,107,2.0,8.0,87,0.00,,,0.23,meteohub,2013-07-16 04:46:00,
2013-07-15 23:48:00,71.4,67.3,-100.00,ESE,110,3.0,8.0,87,0.00,,,0.23,meteohub,2013-07-16 04:48:00,
2013-07-15 23:50:00,71.4,67.3,-100.00,ESE,110,3.0,7.0,87,0.00,,,0.23,meteohub,2013-07-16 04:50:00,
2013-07-15 23:51:00,71.4,67.3,-100.00,ESE,109,5.0,7.0,87,0.00,,,0.23,meteohub,2013-07-16 04:51:00,
2013-07-15 23:52:00,71.4,67.3,-100.00,ESE,109,4.0,7.0,87,0.00,,,0.23,meteohub,2013-07-16 04:52:00,
2013-07-15 23:54:00,71.4,67.3,-100.00,ESE,108,4.0,7.0,87,0.00,,,0.23,meteohub,2013-07-16 04:54:00,
2013-07-15 23:55:00,71.4,67.3,-100.00,ESE,108,3.0,9.0,87,0.00,,,0.23,meteohub,2013-07-16 04:55:00,
2013-07-15 23:57:00,71.4,67.3,-100.00,ESE,108,2.0,9.0,87,0.00,,,0.23,meteohub,2013-07-16 04:57:00,
2013-07-15 23:58:00,71.2,67.1,-100.00,ESE,107,4.0,9.0,87,0.00,,,0.23,meteohub,2013-07-16 04:58:00,
2013-07-15 23:59:00,71.2,67.5,-100.00,ESE,107,4.0,9.0,88,0.00,,,0.23,meteohub,2013-07-16 04:59:00,